Flight Track Log - Related Links

Times and Time Zones

All times are in EDT time to prevent confusion due to time zone crossing. See the 9M-MNA flight status page for this flight to view local times or setup timezone preferences in your user account.

Time Position Orientation Groundspeed Altitude Reporting Facility
EDT Latitude Longitude Course Direction KTS MPH feet Rate Location/Type
Tue 05:52:18 PM 51.4780 -0.4390 89° East 164 189 700  Level FlightAware ADS-B
Tue 05:52:43 PM 51.4790 -0.4090 87° East 156 180 1,300 1,350 Climbing FlightAware ADS-B
Tue 05:52:58 PM 51.4860 -0.3940 53° Northeast 156 180 1,600 -1,313 Climbing FlightAware ADS-B
Tue 05:53:15 PM 51.4947 -0.3766 53° Northeast 176 203 600 1,400 Descending FlightAware UK
Tue 05:53:28 PM 51.5000 -0.3670 53° Northeast 164 189 2,300 600 Climbing FlightAware ADS-B
Tue 05:53:45 PM 51.5099 -0.3469 53° Northeast 206 237 900 774 Descending FlightAware UK
Tue 05:53:59 PM 51.5183 -0.3303 53° Northeast 210 242 2,700 5,700 Climbing FlightAware ADS-B
Tue 05:54:05 PM 51.5213 -0.3226 58° Northeast 215 247 2,800 1,636 Climbing FlightAware ADS-B
Tue 05:54:10 PM 51.5236 -0.3144 66° East 217 250 3,000 2,308 Climbing FlightAware ADS-B
Tue 05:54:18 PM 51.5263 -0.3024 70° East 221 254 3,300 2,348 Climbing FlightAware ADS-B
Tue 05:54:33 PM 51.5310 -0.2784 73° East 226 260 3,900 2,250 Climbing FlightAware ADS-B
Tue 05:54:50 PM 51.5360 -0.2516 73° East 227 261 4,500 1,800 Climbing FlightAware ADS-B
Tue 05:55:03 PM 51.5400 -0.2306 73° East 242 278 4,800 1,200 Climbing FlightAware ADS-B
Tue 05:55:10 PM 51.5428 -0.2174 71° East 252 290 4,900 1,263 Climbing FlightAware ADS-B
Tue 05:55:22 PM 51.5465 -0.1956 75° East 262 302 5,200 2,143 Climbing FlightAware ADS-B
Tue 05:55:38 PM 51.5504 -0.1664 78° East 262 302 5,900 2,129 Climbing FlightAware ADS-B
Tue 05:55:53 PM 51.5541 -0.1373 78° East 265 305 6,300 1,548 Climbing FlightAware ADS-B
Tue 05:56:09 PM 51.5582 -0.1053 78° East 268 308 6,700 1,875 Climbing FlightAware ADS-B
Tue 05:56:25 PM 51.5623 -0.0742 78° East 272 313 7,300 2,182 Climbing FlightAware ADS-B
Tue 05:56:42 PM 51.5666 -0.0406 78° East 279 321 7,900 -750 Climbing FlightAware ADS-B
Tue 05:56:57 PM 51.5708 -0.0087 78° East 280 322 6,900 2,250 Descending FlightAware UK
Tue 05:56:58 PM 51.5708 -0.0088 78° East 282 325 8,500 8,250 Climbing FlightAware ADS-B
Tue 05:57:13 PM 51.5749 0.0228 78° East 284 327 9,100 2,516 Climbing FlightAware ADS-B
Tue 05:57:29 PM 51.5794 0.0572 78° East 288 331 9,800 -563 Climbing FlightAware ADS-B
Tue 05:57:45 PM 51.5837 0.0903 78° East 286 329 8,800 1,579 Descending FlightAware UK
Tue 05:57:48 PM 51.5850 0.0973 78° East 297 342 10,300 667 Climbing FlightAware ADS-B
Tue 05:58:03 PM 51.5918 0.1286 78° East 304 350 9,000 968 Descending FlightAware UK
Tue 05:58:19 PM 51.5999 0.1631 78° East 327 376 10,800 833 Climbing FlightAware ADS-B
Tue 05:58:39 PM 51.6114 0.2108 78° East 340 391 9,500 800 Descending FlightAware UK
Tue 05:58:49 PM 51.6171 0.2357 78° East 356 410 11,200 800 Climbing FlightAware ADS-B
Tue 05:59:09 PM 51.6290 0.2864 78° East 368 423 9,900 774 Descending FlightAware UK
Tue 05:59:20 PM 51.6355 0.3151 78° East 383 441 11,600 1,400 Climbing FlightAware ADS-B
Tue 05:59:39 PM 51.6476 0.3676 78° East 384 442 10,600 2,000 Descending FlightAware UK
Tue 05:59:50 PM 51.6541 0.3963 78° East 390 449 12,600 2,000 Climbing FlightAware ADS-B
Tue 06:00:09 PM 51.6666 0.4499 78° East 386 444 11,600 1,800 Descending FlightAware UK
Tue 06:00:20 PM 51.6733 0.4792 78° East 399 459 13,500 5,000 Climbing FlightAware ADS-B
Tue 06:00:39 PM 51.6865 0.5311 68° East 402 463 14,100 -474 Climbing FlightAware ADS-B
Tue 06:00:58 PM 51.7038 0.5810 68° East 394 453 13,200 1,688 Descending FlightAware UK
Tue 06:01:11 PM 51.7158 0.6143 68° East 411 473 15,000 1,400 Climbing FlightAware ADS-B
Tue 06:01:28 PM 51.7323 0.6595 68° East 402 463 13,900 1,548 Descending FlightAware UK
Tue 06:01:42 PM 51.7459 0.6977 68° East 420 483 15,800 1,400 Climbing FlightAware ADS-B
Tue 06:01:58 PM 51.7617 0.7414 68° East 406 467 14,600 1,600 Descending FlightAware UK
Tue 06:02:12 PM 51.7754 0.7805 68° East 427 491 16,600 1,800 Climbing FlightAware ADS-B
Tue 06:02:28 PM 51.7912 0.8245 68° East 410 472 15,500 1,742 Descending FlightAware UK
Tue 06:02:43 PM 51.8058 0.8658 68° East 433 498 17,500 1,800 Climbing FlightAware ADS-B
Tue 06:02:58 PM 51.8211 0.9084 68° East 414 476 16,400 1,600 Descending FlightAware UK
Tue 06:03:13 PM 51.8360 0.9506 68° East 440 506 18,300 1,400 Climbing FlightAware ADS-B
Tue 06:03:28 PM 51.8516 0.9939 68° East 418 481 17,100 1,500 Descending FlightAware UK
Tue 06:03:45 PM 51.8690 1.0435 68° East 446 513 19,100 1,500 Climbing FlightAware ADS-B
Tue 06:04:04 PM 51.8885 1.0981 68° East 422 486 18,000 1,355 Descending FlightAware UK
Tue 06:04:16 PM 51.9009 1.1340 68° East 454 522 19,800 1,600 Climbing FlightAware ADS-B
Tue 06:04:34 PM 51.9192 1.1858 68° East 428 493 18,800 1,688 Descending FlightAware UK
Tue 06:04:48 PM 51.9335 1.2278 68° East 458 527 20,700 1,400 Climbing FlightAware ADS-B
Tue 06:05:04 PM 51.9502 1.2757 68° East 432 497 19,500 1,200 Descending FlightAware UK
Tue 06:05:18 PM 51.9650 1.3192 68° East 464 534 21,300 1,000 Climbing FlightAware ADS-B
Tue 06:05:34 PM 51.9819 1.3681 68° East 436 502 20,000 1,125 Descending FlightAware UK
Tue 06:05:50 PM 51.9977 1.4161 68° East 470 541 21,900 1,333 Climbing FlightAware ADS-B
Tue 06:06:10 PM 52.0195 1.4810 68° East 440 506 20,800 -1,263 Descending FlightAware UK
Tue 06:06:28 PM 52.0381 1.5376 62° Northeast 444 511 21,100 6,000 Climbing FlightAware UK
Tue 06:06:28 PM 52.0350 1.5280 62° Northeast 482 555 22,600 9,818 Climbing FlightAware ADS-B
Tue 06:06:39 PM 52.0499 1.5734 62° Northeast 483 556 22,900 -1,600 Climbing FlightAware ADS-B
Tue 06:06:58 PM 52.0703 1.6341 62° Northeast 446 513 21,800 1,125 Descending FlightAware UK
Tue 06:07:11 PM 52.0845 1.6766 62° Northeast 490 564 23,500 1,000 Climbing FlightAware ADS-B
Tue 06:07:28 PM 52.1030 1.7312 62° Northeast 452 520 22,300 -1,200 Descending FlightAware UK
Tue 06:07:46 PM 52.1227 1.7897 61° Northeast 454 522 22,800 5,040 Climbing FlightAware UK
Tue 06:07:53 PM 52.1250 1.7960 61° Northeast 494 568 24,400 1,250 Climbing FlightAware ADS-B
Tue 06:08:10 PM 52.1490 1.8683 61° Northeast 456 525 23,300 -1,371 Descending FlightAware UK
Tue 06:08:28 PM 52.1655 1.9305 67° East 460 529 23,600 4,286 Climbing FlightAware UK
Tue 06:08:38 PM 52.1700 1.9580 67° East 505 581 25,300 1,200 Climbing FlightAware ADS-B
Tue 06:08:58 PM 52.1789 2.0432 67° East 462 532 24,200 -1,263 Descending FlightAware UK
Tue 06:09:16 PM 52.1836 2.1118 84° East 464 534 24,500 5,700 Climbing FlightAware UK
Tue 06:09:18 PM 52.1830 2.1090 84° East 511 588 26,100 1,333 Climbing FlightAware ADS-B
Tue 06:09:34 PM 52.1886 2.1805 84° East 468 539 24,900 -1,412 Descending FlightAware UK
Tue 06:09:52 PM 52.1941 2.2490 82° East 468 539 25,300 4,345 Climbing FlightAware UK
Tue 06:10:03 PM 52.1970 2.2810 82° East 514 592 27,000 1,000 Climbing FlightAware ADS-B
Tue 06:10:22 PM 52.2025 2.3646 82° East 472 543 25,800 -1,622 Descending FlightAware UK
Tue 06:10:40 PM 52.2072 2.4344 84° East 474 545 26,000 4,857 Climbing FlightAware UK
Tue 06:10:43 PM 52.2070 2.4350 84° East 520 598 27,500 667 Climbing FlightAware ADS-B
Tue 06:10:58 PM 52.2112 2.5046 84° East 476 548 26,200 -1,636 Descending FlightAware UK
Tue 06:11:16 PM 52.2162 2.5753 83° East 478 550 26,600 4,800 Climbing FlightAware UK
Tue 06:11:23 PM 52.2170 2.5960 83° East 525 604 28,200 750 Climbing FlightAware ADS-B
Tue 06:11:40 PM 52.2222 2.6704 83° East 480 552 26,900 -1,667 Descending FlightAware UK
Tue 06:11:59 PM 52.2268 2.7423 84° East 484 557 27,200 4,286 Climbing FlightAware UK
Tue 06:12:08 PM 52.2290 2.7740 84° East 530 610 28,900 800 Climbing FlightAware ADS-B
Tue 06:12:29 PM 52.2328 2.8618 84° East 486 559 27,600 -1,538 Descending FlightAware UK
Tue 06:12:47 PM 52.2332 2.9342 89° East 486 559 27,900 5,684 Climbing FlightAware UK
Tue 06:12:48 PM 52.2330 2.9340 89° East 534 615 29,400 667 Climbing FlightAware ADS-B
Tue 06:13:05 PM 52.2341 3.0067 89° East 490 564 28,100 -1,714 Descending FlightAware UK
Tue 06:13:23 PM 52.2349 3.0792 89° East 492 566 28,400 4,286 Climbing FlightAware UK
Tue 06:13:33 PM 52.2360 3.1110 89° East 534 615 30,100 1,200 Climbing FlightAware ADS-B
Tue 06:13:53 PM 52.2375 3.1997 89° East 490 564 29,000 -1,263 Descending FlightAware UK
Tue 06:14:11 PM 52.2393 3.2718 88° East 490 564 29,300 5,400 Climbing FlightAware UK
Tue 06:14:13 PM 52.2390 3.2720 88° East 533 613 30,800 1,333 Climbing FlightAware ADS-B
Tue 06:14:29 PM 52.2409 3.3438 88° East 490 564 29,700 -1,235 Descending FlightAware UK
Tue 06:14:47 PM 52.2426 3.4164 88° East 488 562 30,100 5,000 Climbing FlightAware UK
Tue 06:14:53 PM 52.2430 3.4300 88° East 527 606 31,700 1,000 Climbing FlightAware ADS-B
Tue 06:15:11 PM 52.2448 3.5115 88° East 488 562 30,500 -1,500 Descending FlightAware UK
Tue 06:15:29 PM 52.2464 3.5825 88° East 488 562 30,800 4,444 Climbing FlightAware UK
Tue 06:15:38 PM 52.2470 3.6130 88° East 524 603 32,500 1,500 Climbing FlightAware ADS-B
Tue 06:15:53 PM 52.2481 3.6768 88° East 486 559 31,400 -1,636 Descending FlightAware UK
Tue 06:16:11 PM 52.2492 3.7474 89° East 482 555 31,600 4,320 Climbing FlightAware UK
Tue 06:16:18 PM 52.2490 3.7640 89° East 522 601 33,200 500 Climbing FlightAware ADS-B
Tue 06:16:35 PM 52.2508 3.8415 89° East 486 559 31,800 900 Descending FlightAware UK
Tue 06:16:58 PM 52.2520 3.9260 88° East 523 602 33,800 1,250 Climbing FlightAware ADS-B
Tue 06:16:59 PM 52.2524 3.9361 88° East 486 559 32,300 -3,474 Descending FlightAware UK
Tue 06:17:17 PM 52.2537 4.0070 88° East 488 562 32,700 1,500 Climbing FlightAware UK
Tue 06:17:35 PM 52.2552 4.0773 88° East 482 555 33,200 4,615 Climbing FlightAware UK
Tue 06:17:43 PM 52.2550 4.0990 88° East 516 594 34,700 250 Climbing FlightAware ADS-B
Tue 06:17:59 PM 52.2565 4.1701 88° East 486 559 33,300 -1,941 Descending FlightAware UK
Tue 06:18:17 PM 52.2575 4.2399 89° East 486 559 33,600 4,750 Climbing FlightAware UK
Tue 06:18:23 PM 52.2570 4.2550 89° East 519 597 35,200 750 Climbing FlightAware ADS-B
Tue 06:18:41 PM 52.2587 4.3336 89° East 486 559 33,900 -1,667 Descending FlightAware UK
Tue 06:18:59 PM 52.2594 4.4038 89° East 488 562 34,200 4,444 Climbing FlightAware UK
Tue 06:19:08 PM 52.2600 4.4300 89° East 514 592 35,900 750 Climbing FlightAware ADS-B
Tue 06:19:23 PM 52.2608 4.4971 89° East 480 552 34,500 -2,364 Descending FlightAware UK
Tue 06:19:41 PM 52.2618 4.5670 89° East 480 552 34,600 4,080 Climbing FlightAware UK
Tue 06:19:48 PM 52.2610 4.5840 89° East 521 600 36,200 500 Climbing FlightAware ADS-B
Tue 06:20:05 PM 52.2628 4.6614 89° East 488 562 34,800 -1,886 Descending FlightAware UK
Tue 06:20:23 PM 52.2641 4.7317 88° East 490 564 35,100 5,217 Climbing FlightAware UK
Tue 06:20:28 PM 52.2650 4.7430 88° East 515 593 36,800 750 Climbing FlightAware ADS-B
Tue 06:20:47 PM 52.2669 4.8250 88° East 486 559 35,400 -2,108 Descending FlightAware UK
Tue 06:21:05 PM 52.2702 4.8947 86° East 486 559 35,500 3,692 Climbing FlightAware UK
Tue 06:21:13 PM 52.2720 4.9170 86° East 518 596 37,000  Climbing FlightAware ADS-B
Tue 06:21:29 PM 52.2737 4.9878 86° East 488 562 35,500 -2,647 Descending FlightAware UK
Tue 06:21:47 PM 52.2752 5.0575 88° East 486 559 35,500 3,750 Level FlightAware UK
Tue 06:21:53 PM 52.2760 5.0680 88° East 518 596 37,000  Climbing FlightAware ADS-B
Tue 06:22:11 PM 52.2778 5.1510 88° East 492 566 35,500 -2,500 Descending FlightAware UK
Tue 06:22:29 PM 52.2789 5.2207 88° East 492 566 35,500 3,333 Level FlightAware UK
Tue 06:22:38 PM 52.2810 5.2430 88° East 519 597 37,000  Climbing FlightAware ADS-B
Tue 06:22:53 PM 52.2812 5.3144 88° East 490 564 35,500 -2,727 Descending FlightAware UK
Tue 06:23:11 PM 52.2823 5.3842 88° East 492 566 35,500 3,600 Level FlightAware UK
Tue 06:23:18 PM 52.2860 5.4000 88° East 519 597 37,000  Climbing FlightAware ADS-B
Tue 06:23:35 PM 52.2858 5.4787 88° East 492 566 35,500 -2,571 Descending FlightAware UK
Tue 06:23:53 PM 52.2879 5.5491 87° East 490 564 35,500 3,913 Level FlightAware UK
Tue 06:23:58 PM 52.2900 5.5610 87° East 518 596 37,000  Climbing FlightAware ADS-B
Tue 06:24:17 PM 52.2903 5.6428 87° East 490 564 35,500 -2,432 Descending FlightAware UK
Tue 06:24:35 PM 52.2927 5.7133 87° East 494 568 35,500 3,462 Level FlightAware UK
Tue 06:24:43 PM 52.2940 5.7300 87° East 518 596 37,000  Climbing FlightAware ADS-B
Tue 06:24:59 PM 52.2954 5.8078 87° East 492 566 35,500 -2,647 Descending FlightAware UK
Tue 06:25:17 PM 52.2974 5.8781 87° East 492 566 35,500 3,750 Level FlightAware UK
Tue 06:25:23 PM 52.2970 5.8880 87° East 516 594 37,000 1,765 Climbing FlightAware ADS-B
Tue 06:26:08 PM 52.3000 6.0630 88° East 515 593 37,000  Level FlightAware ADS-B
Tue 06:26:48 PM 52.3030 6.2150 88° East 513 590 37,000  Level FlightAware ADS-B
Tue 06:27:33 PM 52.3060 6.3860 88° East 513 590 37,000  Level FlightAware ADS-B
Tue 06:28:13 PM 52.3080 6.5510 89° East 512 589 37,000  Level FlightAware ADS-B
Tue 06:28:53 PM 52.3100 6.7020 89° East 510 587 37,000  Level FlightAware ADS-B
Tue 06:29:38 PM 52.3120 6.8690 89° East 508 585 37,000  Level FlightAware ADS-B
Tue 06:30:18 PM 52.3140 7.0290 89° East 507 583 37,000  Level FlightAware ADS-B
Tue 06:30:58 PM 52.3160 7.1800 89° East 507 583 37,000  Level FlightAware ADS-B
Tue 06:31:43 PM 52.3170 7.3540 89° East 509 586 37,000  Level FlightAware ADS-B
Tue 06:32:23 PM 52.3180 7.5050 89° East 511 588 37,000  Level FlightAware ADS-B
Tue 06:33:03 PM 52.3190 7.6590 89° East 514 592 37,000  Level FlightAware ADS-B
Tue 06:33:53 PM 52.3200 7.8520 89° East 516 594 37,000  Level FlightAware ADS-B
Tue 06:34:23 PM 52.3200 7.9620 90° East 515 593 37,000  Level FlightAware ADS-B
Tue 06:35:03 PM 52.3210 8.1140 89° East 515 593 37,000  Level FlightAware ADS-B
Tue 06:35:38 PM 52.3210 8.2530 90° East 515 593 37,000  Level FlightAware ADS-B
Tue 06:36:28 PM 52.3210 8.4550 90° East 516 594 37,000  Level FlightAware ADS-B
Tue 06:37:03 PM 52.3200 8.5980 91° East 516 594 37,000  Level FlightAware ADS-B
Tue 06:37:53 PM 52.3200 8.7750 90° East 515 593 37,000  Level FlightAware ADS-B
Tue 06:38:33 PM 52.3190 8.9350 91° East 517 595 37,000  Level FlightAware ADS-B
Tue 06:39:18 PM 52.3180 9.1070 90° East 515 593 37,000  Level FlightAware ADS-B
Tue 06:39:58 PM 52.3160 9.2650 91° East 514 592 37,000  Level FlightAware ADS-B
Tue 06:40:38 PM 52.3150 9.4200 91° East 514 592 37,000  Level FlightAware ADS-B
Tue 06:41:23 PM 52.3130 9.5940 91° East 517 595 37,000  Level FlightAware ADS-B
Tue 06:42:03 PM 52.3110 9.7490 91° East 515 593 37,000  Level FlightAware ADS-B
Tue 06:42:48 PM 52.3090 9.9260 91° East 513 590 37,000  Level FlightAware ADS-B
Tue 06:43:28 PM 52.3070 10.0790 91° East 511 588 37,000  Level FlightAware ADS-B
Tue 06:44:08 PM 52.3040 10.2320 92° East 510 587 37,000  Level FlightAware ADS-B
Tue 06:44:53 PM 52.3010 10.4030 92° East 511 588 37,000  Level FlightAware ADS-B
Tue 06:45:33 PM 52.2980 10.5580 92° East 513 590 37,000  Level FlightAware ADS-B
Tue 06:46:18 PM 52.2950 10.7330 92° East 512 589 37,000  Level FlightAware ADS-B
Tue 06:46:58 PM 52.2910 10.8810 92° East 512 589 37,000  Level FlightAware ADS-B
Tue 06:47:38 PM 52.2880 11.0480 92° East 510 587 37,000  Level FlightAware ADS-B
Tue 06:48:23 PM 52.2830 11.2190 93° East 509 586 37,000  Level FlightAware ADS-B
Tue 06:49:03 PM 52.2790 11.3730 92° East 510 587 37,000  Level FlightAware ADS-B
Tue 06:49:48 PM 52.2750 11.5460 92° East 509 586 37,000  Level FlightAware ADS-B
Tue 06:50:28 PM 52.2700 11.6990 93° East 508 585 37,000  Level FlightAware ADS-B
Tue 06:51:08 PM 52.2660 11.8510 92° East 509 586 37,000  Level FlightAware ADS-B
Tue 06:51:53 PM 52.2610 12.0210 93° East 510 587 37,000  Level FlightAware ADS-B
Tue 06:52:33 PM 52.2560 12.1770 93° East 511 588 37,000  Level FlightAware ADS-B
Tue 06:53:13 PM 52.2500 12.3310 94° East 511 588 37,000  Level FlightAware ADS-B
Tue 06:53:58 PM 52.2440 12.5030 93° East 509 586 37,000  Level FlightAware ADS-B
Tue 06:54:43 PM 52.2380 12.6750 93° East 509 586 37,000  Level FlightAware ADS-B
Tue 06:55:23 PM 52.2320 12.8270 94° East 512 589 37,000  Level FlightAware ADS-B
Tue 06:56:03 PM 52.2260 12.9840 94° East 513 590 37,000  Level FlightAware ADS-B
Tue 06:56:48 PM 52.2190 13.1560 94° East 513 590 37,000  Level FlightAware ADS-B
Tue 06:57:28 PM 52.2120 13.3140 94° East 512 589 37,000  Level FlightAware ADS-B
Tue 06:58:08 PM 52.2060 13.4680 94° East 512 589 37,000  Level FlightAware ADS-B
Tue 06:58:53 PM 52.1980 13.6340 94° East 512 589 37,000  Level FlightAware ADS-B
Tue 06:59:33 PM 52.1910 13.7910 94° East 510 587 37,000  Level FlightAware ADS-B
Tue 07:00:13 PM 52.1840 13.9440 94° East 509 586 37,000  Level FlightAware ADS-B
Tue 07:00:58 PM 52.1750 14.1200 95° East 509 586 37,000  Level FlightAware ADS-B
Tue 07:01:38 PM 52.1670 14.2710 95° East 510 587 37,000  Level FlightAware ADS-B
Tue 07:02:23 PM 52.1590 14.4410 94° East 510 587 37,000  Level FlightAware ADS-B
Tue 07:03:03 PM 52.1500 14.5930 95° East 511 588 37,000  Level FlightAware ADS-B
Tue 07:03:43 PM 52.1420 14.7460 95° East 513 590 37,000  Level FlightAware ADS-B
Tue 07:04:28 PM 52.1320 14.9240 95° East 510 587 37,000  Level FlightAware ADS-B
Tue 07:05:08 PM 52.1240 15.0690 95° East 511 588 37,000  Level FlightAware ADS-B
Tue 07:05:48 PM 52.1150 15.2210 95° East 513 590 37,000  Level FlightAware ADS-B
Tue 07:06:38 PM 52.1040 15.4070 95° East 514 592 37,000  Level FlightAware ADS-B
Tue 07:07:18 PM 52.0940 15.5660 96° East 513 590 37,000  Level FlightAware ADS-B
Tue 07:07:58 PM 52.0840 15.7220 96° East 515 593 37,000  Level FlightAware ADS-B
Tue 07:08:43 PM 52.0730 15.8990 96° East 517 595 37,000  Level FlightAware ADS-B
Tue 07:09:23 PM 52.0630 16.0510 96° East 514 592 37,000  Level FlightAware ADS-B
Tue 07:10:08 PM 52.0510 16.2190 97° East 512 589 37,000  Level FlightAware ADS-B
Tue 07:10:48 PM 52.0410 16.3640 96° East 511 588 37,000  Level FlightAware ADS-B
Tue 07:11:28 PM 52.0310 16.5160 96° East 511 588 37,000  Level FlightAware ADS-B
Tue 07:12:13 PM 52.0180 16.6980 97° East 511 588 37,000  Level FlightAware ADS-B
Tue 07:12:53 PM 52.0070 16.8510 97° East 512 589 37,000  Level FlightAware ADS-B
Tue 07:13:38 PM 51.9950 17.0100 97° East 513 590 37,000  Level FlightAware ADS-B
Tue 07:14:18 PM 51.9830 17.1710 97° East 511 588 37,000  Level FlightAware ADS-B
Tue 07:15:03 PM 51.9690 17.3460 97° East 512 589 37,000  Level FlightAware ADS-B
Tue 07:15:43 PM 51.9570 17.4990 97° East 513 590 37,000  Level FlightAware ADS-B
Tue 07:16:23 PM 51.9450 17.6520 97° East 514 592 37,000  Level FlightAware ADS-B
Tue 07:17:08 PM 51.9310 17.8210 98° East 516 594 37,000  Level FlightAware ADS-B
Tue 07:17:48 PM 51.9190 17.9720 97° East 513 590 37,000  Level FlightAware ADS-B
Tue 07:18:33 PM 51.9050 18.1430 97° East 512 589 37,000  Level FlightAware ADS-B
Tue 07:19:13 PM 51.8910 18.2970 98° East 515 593 37,000  Level FlightAware ADS-B
Tue 07:19:53 PM 51.8780 18.4490 98° East 517 595 37,000  Level FlightAware ADS-B
Tue 07:20:33 PM 51.8650 18.6010 98° East 515 593 37,000  Level FlightAware ADS-B
Tue 07:21:18 PM 51.8500 18.7690 98° East 513 590 37,000  Level FlightAware ADS-B
Tue 07:21:58 PM 51.8360 18.9190 99° East 514 592 37,000  Level FlightAware ADS-B
Tue 07:22:43 PM 51.8200 19.0970 98° East 515 593 37,000  Level FlightAware ADS-B
Tue 07:23:23 PM 51.8060 19.2470 99° East 515 593 37,000  Level FlightAware ADS-B
Tue 07:24:08 PM 51.7900 19.4160 99° East 512 589 37,000  Level FlightAware ADS-B
Tue 07:24:48 PM 51.7750 19.5660 99° East 515 593 37,000  Level FlightAware ADS-B
Tue 07:25:28 PM 51.7600 19.7190 99° East 516 594 37,000  Level FlightAware ADS-B
Tue 07:26:13 PM 51.7430 19.8940 99° East 515 593 37,000  Level FlightAware ADS-B
Tue 07:26:53 PM 51.7280 20.0400 99° East 514 592 37,000  Level FlightAware ADS-B
Tue 07:27:38 PM 51.7110 20.2070 99° East 516 594 37,000  Level FlightAware ADS-B
Tue 07:28:18 PM 51.6950 20.3600 100° East 517 595 37,000  Level FlightAware ADS-B
Tue 07:29:03 PM 51.6770 20.5310 100° East 516 594 37,000  Level FlightAware ADS-B
Tue 07:29:43 PM 51.6610 20.6830 100° East 516 594 37,000  Level FlightAware ADS-B
Tue 07:30:23 PM 51.6440 20.8340 100° East 514 592 37,000  Level FlightAware ADS-B
Tue 07:31:08 PM 51.6260 21.0000 100° East 512 589 37,000  Level FlightAware ADS-B
Tue 07:31:48 PM 51.6090 21.1510 100° East 510 587 37,000  Level FlightAware ADS-B
Tue 07:32:33 PM 51.5900 21.3200 100° East 510 587 37,000  Level FlightAware ADS-B
Tue 07:33:13 PM 51.5740 21.4680 100° East 511 588 37,000  Level FlightAware ADS-B
Tue 07:33:53 PM 51.5560 21.6180 101° East 510 587 37,000  Level FlightAware ADS-B
Tue 07:34:38 PM 51.5370 21.7830 100° East 508 585 37,000  Level FlightAware ADS-B
Tue 07:35:18 PM 51.5190 21.9330 101° East 507 583 37,000  Level FlightAware ADS-B
Tue 07:35:58 PM 51.5010 22.0830 101° East 508 585 37,000  Level FlightAware ADS-B
Tue 07:36:43 PM 51.4820 22.2440 101° East 507 583 37,000  Level FlightAware ADS-B
Tue 07:37:23 PM 51.4640 22.3930 101° East 506 582 37,000  Level FlightAware ADS-B
Tue 07:38:08 PM 51.4440 22.5510 101° East 505 581 37,000  Level FlightAware ADS-B
Tue 07:38:48 PM 51.4250 22.7060 101° East 505 581 37,000  Level FlightAware ADS-B
Tue 07:39:33 PM 51.4050 22.8640 101° East 504 580 37,000  Level FlightAware ADS-B
Tue 07:40:13 PM 51.3860 23.0120 102° East 503 579 37,000  Level FlightAware ADS-B
Tue 07:40:48 PM 51.3700 23.1360 102° East 503 579 37,000  Level FlightAware ADS-B
Tue 07:41:33 PM 51.3490 23.2930 102° East 504 580 37,000  Level FlightAware ADS-B
Tue 07:42:08 PM 51.3320 23.4220 102° East 503 579 37,000  Level FlightAware ADS-B
Tue 07:42:58 PM 51.3090 23.5990 102° East 500 575 37,000  Level FlightAware ADS-B
Tue 07:43:58 PM 51.2800 23.8010 103° East 502 578 37,000  Level FlightAware ADS-B
Tue 07:44:38 PM 51.2580 23.9540 103° East 503 579 37,000  Level FlightAware ADS-B
Tue 07:45:23 PM 51.2360 24.1010 103° East 505 581 37,000  Level FlightAware ADS-B
Tue 07:46:03 PM 51.2150 24.2470 103° East 503 579 37,000  Level FlightAware ADS-B
Tue 07:46:43 PM 51.1930 24.3940 103° East 503 579 37,000  Level FlightAware ADS-B
Tue 07:47:23 PM 51.1700 24.5420 104° East 506 582 37,000  Level FlightAware ADS-B
Tue 07:48:08 PM 51.1480 24.6900 103° East 507 583 37,000  Level FlightAware ADS-B
Tue 07:48:43 PM 51.1240 24.8470 104° East 508 585 37,000  Level FlightAware ADS-B
Tue 07:49:28 PM 51.0980 25.0140 104° East 507 583 37,000  Level FlightAware ADS-B
Tue 07:50:13 PM 51.0760 25.1630 103° East 507 583 37,000  Level FlightAware ADS-B
Tue 07:50:53 PM 51.0580 25.2860 103° East 507 583 37,000  Level FlightAware ADS-B
Tue 07:51:38 PM 51.0270 25.4650 105° East 506 582 37,000  Level FlightAware ADS-B
Tue 07:52:18 PM 51.0070 25.5880 104° East 506 582 37,000  Level FlightAware ADS-B
Tue 07:53:03 PM 50.9780 25.7630 105° East 506 582 37,000  Level FlightAware ADS-B
Tue 07:53:38 PM 50.9580 25.8880 104° East 507 583 37,000  Level FlightAware ADS-B
Tue 07:54:23 PM 50.9350 26.0320 104° East 507 583 37,000  Level FlightAware ADS-B
Tue 07:55:08 PM 50.9010 26.2250 106° East 507 583 37,000  Level FlightAware ADS-B
Tue 07:55:48 PM 50.8770 26.3700 105° East 505 581 37,000  Level FlightAware ADS-B
Tue 07:56:33 PM 50.8530 26.5190 104° East 505 581 37,000  Level FlightAware ADS-B
Tue 07:57:13 PM 50.8270 26.6650 106° East 37,000  Level FlightAware ADS-B
Tue 07:57:58 PM 50.7970 26.8340 106° East 505 581 37,000  Level FlightAware ADS-B
Tue 07:58:38 PM 50.7720 26.9780 105° East 506 582 37,000  Level FlightAware ADS-B
Tue 07:59:13 PM 50.7500 27.1030 106° East 503 579 37,000  Level FlightAware ADS-B
Tue 08:00:03 PM 50.7180 27.2820 106° East 499 574 37,000  Level FlightAware ADS-B
Tue 08:00:43 PM 50.6910 27.4210 107° East 496 571 37,000  Level FlightAware ADS-B
Tue 08:01:28 PM 50.6620 27.5730 107° East 495 570 37,000  Level FlightAware ADS-B
Tue 08:02:08 PM 50.6350 27.7130 107° East 496 571 37,000  Level FlightAware ADS-B
Tue 08:02:48 PM 50.6080 27.8520 107° East 495 570 37,000  Level FlightAware ADS-B
Tue 08:03:33 PM 50.5790 28.0020 107° East 495 570 37,000  Level FlightAware ADS-B
Tue 08:04:13 PM 50.5520 28.1380 107° East 496 571 37,000  Level FlightAware ADS-B
Tue 08:04:53 PM 50.5260 28.2720 107° East 494 568 37,000  Level FlightAware ADS-B
Tue 08:05:48 PM 50.4850 28.4750 108° East 495 570 37,000  Level FlightAware ADS-B
Tue 08:06:33 PM 50.4580 28.6090 108° East 495 570 37,000  Level FlightAware ADS-B
Tue 08:07:13 PM 50.4300 28.7480 107° East 495 570 37,000  Level FlightAware ADS-B
Tue 08:07:58 PM 50.3970 28.9090 108° East 495 570 37,000  Level FlightAware ADS-B
Tue 08:08:38 PM 50.3670 29.0540 108° East 493 567 37,000  Level FlightAware ADS-B
Tue 08:09:23 PM 50.3380 29.1940 108° East 491 565 37,000  Level FlightAware ADS-B
Tue 08:10:03 PM 50.3120 29.3190 108° East 492 566 37,000  Level FlightAware ADS-B
Tue 08:10:48 PM 50.2760 29.4880 108° East 492 566 37,000  Level FlightAware ADS-B
Tue 08:11:28 PM 50.2480 29.6230 108° East 493 567 37,000  Level FlightAware ADS-B
Tue 08:12:08 PM 50.2200 29.7550 108° East 492 566 37,000  Level FlightAware ADS-B
Tue 08:12:53 PM 50.1870 29.9070 109° East 488 562 37,000  Level FlightAware ADS-B
Tue 08:13:33 PM 50.1580 30.0410 109° East 487 560 37,000  Level FlightAware ADS-B
Tue 08:14:18 PM 50.1260 30.1910 108° East 487 560 37,000  Level FlightAware ADS-B
Tue 08:14:58 PM 50.0960 30.3240 109° East 489 563 37,000  Level FlightAware ADS-B
Tue 08:15:43 PM 50.0640 30.4720 109° East 490 564 37,000  Level FlightAware ADS-B
Tue 08:16:23 PM 50.0340 30.6070 109° East 488 562 37,000  Level FlightAware ADS-B
Tue 08:17:08 PM 50.0000 30.7550 110° East 488 562 37,000  Level FlightAware ADS-B
Tue 08:17:48 PM 49.9710 30.8880 109° East 488 562 37,000  Level FlightAware ADS-B
Tue 08:18:28 PM 49.9410 31.0190 110° East 488 562 37,000  Level FlightAware ADS-B
Tue 08:19:08 PM 49.9110 31.1500 110° East 489 563 37,000  Level FlightAware ADS-B
Tue 08:19:53 PM 49.8760 31.3030 109° East 490 564 37,000  Level FlightAware ADS-B
Tue 08:20:33 PM 49.8460 31.4330 110° East 489 563 37,000  Level FlightAware ADS-B
Tue 08:21:18 PM 49.8110 31.5820 110° East 489 563 37,000  Level FlightAware ADS-B
Tue 08:21:58 PM 49.7800 31.7140 110° East 490 564 37,000  Level FlightAware ADS-B
Tue 08:22:53 PM 49.7390 31.8890 110° East 488 562 37,000  Level FlightAware ADS-B
Tue 08:23:33 PM 49.7130 31.9960 111° Southeast 488 562 37,000  Level FlightAware ADS-B
Tue 08:24:13 PM 49.6810 32.1320 110° East 488 562 37,000  Level FlightAware ADS-B
Tue 08:24:58 PM 49.6410 32.2980 110° East 486 559 37,000  Level FlightAware ADS-B
Tue 08:25:43 PM 49.6080 32.4330 111° Southeast 486 559 37,000  Level FlightAware ADS-B
Tue 08:26:23 PM 49.5780 32.5580 110° East 487 560 37,000  Level FlightAware ADS-B
Tue 08:27:03 PM 49.5450 32.6910 111° Southeast 487 560 37,000  Level FlightAware ADS-B
Tue 08:27:48 PM 49.5090 32.8360 111° Southeast 485 558 37,000  Level FlightAware ADS-B
Tue 08:28:28 PM 49.4780 32.9640 110° East 483 556 37,000  Level FlightAware ADS-B
Tue 08:29:13 PM 49.4400 33.1150 111° Southeast 480 552 37,000  Level FlightAware ADS-B
Tue 08:29:53 PM 49.4080 33.2440 111° Southeast 482 555 37,000  Level FlightAware ADS-B
Tue 08:30:38 PM 49.3720 33.3860 111° Southeast 484 557 37,000  Level FlightAware ADS-B
Tue 08:31:18 PM 49.3380 33.5190 111° Southeast 485 558 37,000  Level FlightAware ADS-B
Tue 08:31:58 PM 49.3070 33.6410 111° Southeast 486 559 37,000  Level FlightAware ADS-B
Tue 08:32:38 PM 49.2790 33.7670 109° East 489 563 37,000  Level FlightAware ADS-B
Tue 08:33:23 PM 49.2470 33.9220 107° East 489 563 37,000  Level FlightAware ADS-B
Tue 08:33:58 PM 49.2230 34.0350 108° East 484 557 37,000  Level FlightAware ADS-B
Tue 08:34:48 PM 49.1840 34.1960 110° East 485 558 37,000  Level FlightAware ADS-B
Tue 08:35:23 PM 49.1600 34.3020 109° East 484 557 37,000  Level FlightAware ADS-B
Tue 08:36:13 PM 49.1210 34.4720 109° East 484 557 37,000  Level FlightAware ADS-B
Tue 08:36:53 PM 49.0930 34.5970 109° East 486 559 37,000  Level FlightAware ADS-B
Tue 08:37:33 PM 49.0620 34.7280 110° East 488 562 37,000  Level FlightAware ADS-B
Tue 08:38:13 PM 49.0340 34.8490 109° East 486 559 37,000  Level FlightAware ADS-B
Tue 08:38:58 PM 49.0000 34.9970 109° East 486 559 37,000  Level FlightAware ADS-B
Tue 08:39:43 PM 48.9650 35.1440 110° East 486 559 37,000  Level FlightAware ADS-B
Tue 08:40:23 PM 48.9310 35.2660 113° Southeast 486 559 37,000  Level FlightAware ADS-B
Tue 08:41:03 PM 48.8970 35.4010 111° Southeast 490 564 37,000  Level FlightAware ADS-B
Tue 08:41:48 PM 48.8640 35.5330 111° Southeast 490 564 37,000  Level FlightAware ADS-B
Tue 08:42:43 PM 48.8180 35.7160 111° Southeast 488 562 37,000  Level FlightAware ADS-B
Tue 08:43:18 PM 48.7900 35.8220 112° Southeast 489 563 37,000  Level FlightAware ADS-B
Tue 08:44:03 PM 48.7530 35.9700 111° Southeast 489 563 37,000  Level FlightAware ADS-B
Tue 08:44:48 PM 48.7160 36.1090 112° Southeast 491 565 37,000  Level FlightAware ADS-B
Tue 08:45:28 PM 48.6850 36.2300 111° Southeast 490 564 37,000  Level FlightAware ADS-B
Tue 08:46:08 PM 48.6510 36.3620 111° Southeast 488 562 37,000  Level FlightAware ADS-B
Tue 08:47:08 PM 48.6020 36.5480 112° Southeast 487 560 37,000  Level FlightAware ADS-B
Tue 08:47:53 PM 48.5620 36.6980 112° Southeast 489 563 37,000  Level FlightAware ADS-B
Tue 08:48:33 PM 48.5280 36.8240 112° Southeast 491 565 37,000  Level FlightAware ADS-B
Tue 08:49:08 PM 48.4990 36.9340 112° Southeast 492 566 37,000  Level FlightAware ADS-B
Tue 08:49:58 PM 48.4590 37.0830 112° Southeast 488 562 37,000  Level FlightAware ADS-B
Tue 08:50:38 PM 48.4270 37.2000 112° Southeast 488 562 37,000  Level FlightAware ADS-B
Tue 08:51:18 PM 48.3910 37.3330 112° Southeast 490 564 37,000  Level FlightAware ADS-B
Tue 08:52:03 PM 48.3520 37.4750 112° Southeast 492 566 37,000  Level FlightAware ADS-B
Tue 08:52:48 PM 48.3140 37.6160 112° Southeast 487 560 37,000  Level FlightAware ADS-B
Tue 08:53:18 PM 48.2890 37.7060 113° Southeast 486 559 37,000  Level FlightAware ADS-B
Tue 08:54:03 PM 48.2500 37.8460 113° Southeast 487 560 37,000  Level FlightAware ADS-B
Tue 08:54:53 PM 48.2070 37.9990 113° Southeast 491 565 37,000  Level FlightAware ADS-B
Tue 08:55:33 PM 48.1710 38.1280 113° Southeast 493 567 37,000  Level FlightAware ADS-B
Tue 08:56:13 PM 48.1350 38.2560 113° Southeast 493 567 37,000  Level FlightAware ADS-B
Tue 08:56:58 PM 48.0940 38.3980 113° Southeast 493 567 37,000  Level FlightAware ADS-B
Tue 08:57:43 PM 48.0530 38.5420 113° Southeast 495 570 37,000  Level FlightAware ADS-B
Tue 08:58:23 PM 48.0160 38.6690 113° Southeast 495 570 37,000  Level FlightAware ADS-B
Tue 08:58:58 PM 47.9860 38.7730 113° Southeast 495 570 37,000  Level FlightAware ADS-B
Tue 08:59:48 PM 47.9450 38.9160 113° Southeast 494 568 37,000  Level FlightAware ADS-B
Tue 09:00:28 PM 47.8990 39.0740 113° Southeast 490 564 37,000  Level FlightAware ADS-B
Tue 09:01:13 PM 47.8580 39.2130 114° Southeast 489 563 37,000  Level FlightAware ADS-B
Tue 09:01:53 PM 47.8210 39.3330 115° Southeast 491 565 37,000  Level FlightAware ADS-B
Tue 09:02:33 PM 47.7810 39.4560 116° Southeast 492 566 37,000  Level FlightAware ADS-B
Tue 09:03:13 PM 47.7420 39.5790 115° Southeast 491 565 37,000  Level FlightAware ADS-B
Tue 09:03:53 PM 47.7040 39.6980 115° Southeast 490 564 37,000  Level FlightAware ADS-B
Tue 09:04:38 PM 47.6590 39.8370 116° Southeast 490 564 37,000  Level FlightAware ADS-B
Tue 09:05:23 PM 47.6160 39.9700 116° Southeast 488 562 37,000  Level FlightAware ADS-B
Tue 09:05:58 PM 47.5830 40.0720 116° Southeast 488 562 37,000  Level FlightAware ADS-B
Tue 09:06:48 PM 47.5320 40.2260 116° Southeast 485 558 37,000  Level FlightAware ADS-B
Tue 09:07:23 PM 47.5000 40.3230 116° Southeast 483 556 37,000  Level FlightAware ADS-B
Tue 09:08:13 PM 47.4570 40.4540 116° Southeast 479 551 37,000  Level FlightAware ADS-B
Tue 09:08:48 PM 47.4220 40.5610 116° Southeast 480 552 37,000  Level FlightAware ADS-B
Tue 09:09:28 PM 47.3910 40.6540 116° Southeast 482 555 37,000  Level FlightAware ADS-B
Tue 09:10:18 PM 47.3280 40.8440 116° Southeast 483 556 37,000  Level FlightAware ADS-B
Tue 09:10:58 PM 47.2900 40.9580 116° Southeast 483 556 37,000  Level FlightAware ADS-B
Tue 09:11:33 PM 47.2580 41.0550 116° Southeast 483 556 37,000  Level FlightAware ADS-B
Tue 09:12:08 PM 47.2280 41.1450 116° Southeast 483 556 37,000  Level FlightAware ADS-B
Tue 09:12:55 PM 47.1890 41.2630 116° Southeast 483 556 37,000  Level FlightAware ADS-B
Tue 09:13:31 PM 47.1590 41.3540 116° Southeast 483 556 37,000  Level FlightAware ADS-B
Tue 09:14:14 PM 47.1120 41.4840 118° Southeast 479 551 37,000  Level FlightAware ADS-B
Tue 09:14:59 PM 47.0710 41.6020 117° Southeast 479 551 37,000  Level FlightAware ADS-B
Tue 09:15:39 PM 47.0370 41.7010 117° Southeast 479 551 37,000  Level FlightAware ADS-B
Tue 09:16:24 PM 46.9670 41.9010 117° Southeast 480 552 37,000  Level FlightAware ADS-B
Tue 09:17:09 PM 46.9220 42.0310 117° Southeast 478 550 37,000  Level FlightAware ADS-B
Tue 09:17:49 PM 46.8810 42.1480 117° Southeast 479 551 37,000  Level FlightAware ADS-B
Tue 09:18:34 PM 46.8350 42.2770 117° Southeast 482 555 37,000  Level FlightAware ADS-B
Tue 09:19:14 PM 46.7930 42.3940 118° Southeast 480 552 37,000  Level FlightAware ADS-B
Tue 09:19:54 PM 46.7530 42.5090 117° Southeast 479 551 37,000  Level FlightAware ADS-B
Tue 09:20:39 PM 46.7080 42.6350 117° Southeast 479 551 37,000  Level FlightAware ADS-B
Tue 09:21:19 PM 46.6660 42.7500 118° Southeast 479 551 37,000  Level FlightAware ADS-B
Tue 09:22:04 PM 46.6200 42.8790 117° Southeast 481 554 37,000  Level FlightAware ADS-B
Tue 09:22:39 PM 46.5830 42.9800 118° Southeast 479 551 37,000  Level FlightAware ADS-B
Tue 09:23:29 PM 46.5310 43.1220 118° Southeast 477 549 37,000  Level FlightAware ADS-B
Tue 09:24:04 PM 46.5000 43.2080 118° Southeast 476 548 37,000  Level FlightAware ADS-B
Tue 09:24:49 PM 46.4600 43.3400 114° Southeast 479 551 37,000  Level FlightAware ADS-B
Tue 09:25:34 PM 46.4270 43.4770 109° East 482 555 37,000  Level FlightAware ADS-B
Tue 09:26:04 PM 46.4030 43.5750 110° East 484 557 37,000  Level FlightAware ADS-B
Tue 09:27:09 PM 46.3540 43.7690 110° East 480 552 37,000  Level FlightAware ADS-B
Tue 09:27:49 PM 46.3260 43.8840 109° East 479 551 37,000  Level FlightAware ADS-B
Tue 09:28:34 PM 46.2950 44.0070 110° East 479 551 37,000  Level FlightAware ADS-B
Tue 09:29:14 PM 46.2690 44.1100 110° East 479 551 37,000  Level FlightAware ADS-B
Tue 09:29:59 PM 46.2260 44.2780 110° East 476 548 37,000  Level FlightAware ADS-B
Tue 09:30:39 PM 46.1940 44.4040 110° East 477 549 37,000  Level FlightAware ADS-B
Tue 09:31:24 PM 46.1600 44.5350 111° Southeast 474 545 37,000  Level FlightAware ADS-B
Tue 09:32:04 PM 46.1300 44.6520 110° East 476 548 37,000  Level FlightAware ADS-B
Tue 09:32:44 PM 46.1000 44.7660 111° Southeast 476 548 37,000  Level FlightAware ADS-B
Tue 09:33:29 PM 46.0650 44.9010 110° East 473 544 37,000  Level FlightAware ADS-B
Tue 09:34:09 PM 46.0340 45.0170 111° Southeast 472 543 37,000  Level FlightAware ADS-B
Tue 09:34:49 PM 46.0050 45.1250 111° Southeast 472 543 37,000  Level FlightAware ADS-B
Tue 09:35:29 PM 45.9790 45.2250 110° East 472 543 37,000  Level FlightAware ADS-B
Tue 09:36:09 PM 45.9520 45.3250 111° Southeast 472 543 37,000  Level FlightAware ADS-B
Tue 09:36:59 PM 45.9190 45.4490 111° Southeast 472 543 37,000  Level FlightAware ADS-B
Tue 09:37:39 PM 45.8700 45.6320 111° Southeast 466 536 37,000  Level FlightAware ADS-B
Tue 09:38:19 PM 45.8400 45.7450 111° Southeast 462 532 37,000  Level FlightAware ADS-B
Tue 09:39:04 PM 45.8090 45.8600 111° Southeast 462 532 37,000  Level FlightAware ADS-B
Tue 09:39:44 PM 45.8090 45.8600 111° Southeast 463 533 37,000  Level FlightAware ADS-B
Tue 09:41:24 PM 45.6980 46.2640 111° Southeast 467 537 37,000  Level FlightAware ADS-B
Tue 09:42:04 PM 45.6680 46.3740 111° Southeast 464 534 37,000  Level FlightAware ADS-B
Tue 09:42:44 PM 45.6310 46.5030 112° Southeast 465 535 37,000  Level FlightAware ADS-B
Tue 09:43:24 PM 45.6000 46.6140 112° Southeast 466 536 37,000  Level FlightAware ADS-B
Tue 09:44:09 PM 45.5630 46.7450 112° Southeast 468 539 37,000  Level FlightAware ADS-B
Tue 09:44:54 PM 45.5270 46.8720 112° Southeast 470 541 37,000 282 Level FlightAware ADS-B
Tue 09:45:34 PM 45.4940 46.9870 112° Southeast 468 539 37,400 450 Climbing FlightAware ADS-B
Tue 09:46:14 PM 45.4650 47.0870 112° Southeast 466 536 37,600 480 Climbing FlightAware ADS-B
Tue 09:47:14 PM 45.4170 47.2560 112° Southeast 472 543 38,200 764 Climbing FlightAware ADS-B
Tue 09:48:04 PM 45.3730 47.4060 113° Southeast 464 534 39,000 505 Climbing FlightAware ADS-B
Tue 09:48:49 PM 45.3410 47.5210 112° Southeast 464 534 39,000  Level FlightAware ADS-B
Tue 09:49:34 PM 45.2980 47.6630 113° Southeast 470 541 39,000  Level FlightAware ADS-B
Tue 09:50:24 PM 45.2550 47.8100 113° Southeast 473 544 39,000  Level FlightAware ADS-B
Tue 09:51:09 PM 45.2190 47.9330 113° Southeast 472 543 39,000  Level FlightAware ADS-B
Tue 09:52:04 PM 45.1710 48.0940 113° Southeast 465 535 39,000  Level FlightAware ADS-B
Tue 09:52:54 PM 45.1330 48.2260 112° Southeast 464 534 39,000  Level FlightAware ADS-B
Tue 09:53:34 PM 45.0960 48.3460 114° Southeast 462 532 39,000  Level FlightAware ADS-B
Tue 09:54:19 PM 45.0580 48.4710 113° Southeast 458 527 39,000  Level FlightAware ADS-B
Tue 09:54:59 PM 45.0250 48.5790 113° Southeast 456 525 39,000  Level FlightAware ADS-B
Tue 09:55:39 PM 44.9930 48.6850 113° Southeast 456 525 39,000  Level FlightAware ADS-B
Tue 09:56:24 PM 44.9530 48.8130 114° Southeast 457 526 39,000  Level FlightAware ADS-B
Tue 09:57:04 PM 44.9200 48.9220 113° Southeast 456 525 39,000  Level FlightAware ADS-B
Tue 09:57:49 PM 44.8820 49.0430 114° Southeast 457 526 39,000  Level FlightAware ADS-B
Tue 09:58:29 PM 44.8500 49.1480 113° Southeast 458 527 39,000  Level FlightAware ADS-B
Tue 09:59:09 PM 44.8140 49.2620 114° Southeast 459 528 39,000  Level FlightAware ADS-B
Tue 09:59:54 PM 44.7750 49.3860 114° Southeast 462 532 39,000  Level FlightAware ADS-B
Tue 10:00:34 PM 44.7390 49.4910 116° Southeast 457 526 39,000  Level FlightAware ADS-B
Tue 10:01:09 PM 44.6980 49.5780 124° Southeast 451 519 39,000  Level FlightAware ADS-B
Tue 10:01:59 PM 44.6350 49.6950 127° Southeast 453 521 39,000  Level FlightAware ADS-B
Tue 10:02:39 PM 44.5840 49.7900 127° Southeast 454 522 39,000  Level FlightAware ADS-B
Tue 10:03:24 PM 44.5280 49.8930 127° Southeast 454 522 39,000  Level FlightAware ADS-B
Tue 10:04:04 PM 44.4780 49.9860 127° Southeast 456 525 39,000  Level FlightAware ADS-B
Tue 10:04:49 PM 44.4180 50.0950 128° Southeast 452 520 39,000  Level FlightAware ADS-B
Tue 10:05:29 PM 44.3680 50.1860 128° Southeast 450 518 39,000  Level FlightAware ADS-B
Tue 10:06:09 PM 44.3190 50.2760 127° Southeast 448 516 39,000  Level FlightAware ADS-B
Tue 10:06:49 PM 44.2730 50.3610 127° Southeast 448 516 39,000  Level FlightAware ADS-B
Tue 10:07:24 PM 44.2220 50.4520 128° Southeast 452 520 39,000  Level FlightAware ADS-B
Tue 10:08:29 PM 44.1920 50.5070 127° Southeast 452 520 39,000  Level FlightAware ADS-B
Tue 10:09:09 PM 44.1490 50.5860 127° Southeast 452 520 39,000  Level FlightAware ADS-B
Tue 10:09:49 PM 44.1060 50.6650 127° Southeast 452 520 39,000  Level FlightAware ADS-B
Tue 10:10:29 PM 44.0640 50.7440 126° Southeast 452 520 39,000  Level FlightAware ADS-B
Tue 10:11:19 PM 44.0100 50.8430 127° Southeast 452 520 39,000  Level FlightAware ADS-B
Tue 10:11:59 PM 43.9670 50.9220 127° Southeast 452 520 39,000  Level FlightAware ADS-B
Tue 10:12:39 PM 43.9250 51.0010 126° Southeast 452 520 39,000  Level FlightAware ADS-B
Tue 10:13:19 PM 43.8820 51.0800 127° Southeast 452 520 39,000  Level FlightAware ADS-B
Tue 10:13:59 PM 43.8390 51.1590 127° Southeast 452 520 39,000  Level FlightAware ADS-B
Tue 10:14:49 PM 43.7850 51.2570 127° Southeast 452 520 39,000  Level FlightAware ADS-B
Tue 10:15:29 PM 43.7430 51.3360 126° Southeast 452 520 39,000  Level FlightAware ADS-B
Tue 10:16:09 PM 43.7000 51.4140 127° Southeast 452 520 39,000  Level FlightAware ADS-B
Tue 10:16:49 PM 43.6570 51.4930 127° Southeast 452 520 39,000  Level FlightAware ADS-B
Tue 10:17:29 PM 43.6140 51.5710 127° Southeast 452 520 39,000  Level FlightAware ADS-B
Tue 10:20:00 PM 43.4672 51.9504 118° Southeast  Level Estimated
Tue 10:21:00 PM 43.4086 52.1006 118° Southeast  Level Estimated
Tue 10:22:00 PM 43.3497 52.2506 118° Southeast  Level Estimated
Tue 10:23:00 PM 43.2906 52.4002 118° Southeast  Level Estimated
Tue 10:24:00 PM 43.2314 52.5496 119° Southeast  Level Estimated
Tue 10:25:00 PM 43.1719 52.6987 119° Southeast  Level Estimated
Tue 10:26:00 PM 43.1123 52.8475 119° Southeast  Level Estimated
Tue 10:27:00 PM 43.0525 52.9960 119° Southeast  Level Estimated
Tue 10:28:00 PM 42.9925 53.1442 119° Southeast  Level Estimated
Tue 10:29:00 PM 42.9322 53.2921 119° Southeast  Level Estimated
Tue 10:30:00 PM 42.8718 53.4398 119° Southeast  Level Estimated
Tue 10:31:00 PM 42.8112 53.5871 119° Southeast  Level Estimated
Tue 10:32:00 PM 42.7505 53.7341 119° Southeast  Level Estimated
Tue 10:33:00 PM 42.6895 53.8809 119° Southeast  Level Estimated
Tue 10:34:00 PM 42.6283 54.0274 120° Southeast  Level Estimated
Tue 10:35:00 PM 42.5670 54.1736 120° Southeast  Level Estimated
Tue 10:36:00 PM 42.5055 54.3195 120° Southeast  Level Estimated
Tue 10:37:00 PM 42.4438 54.4651 120° Southeast  Level Estimated
Tue 10:38:00 PM 42.3819 54.6104 120° Southeast  Level Estimated
Tue 10:39:00 PM 42.3198 54.7554 120° Southeast  Level Estimated
Tue 10:40:00 PM 42.2575 54.9002 120° Southeast  Level Estimated
Tue 10:41:00 PM 42.1951 55.0446 120° Southeast  Level Estimated
Tue 10:42:00 PM 42.1325 55.1888 120° Southeast  Level Estimated
Tue 10:43:00 PM 42.0696 55.3327 120° Southeast  Level Estimated
Tue 10:44:00 PM 42.0067 55.4763 121° Southeast  Level Estimated
Tue 10:45:00 PM 41.9435 55.6196 121° Southeast  Level Estimated
Tue 10:46:00 PM 41.8802 55.7627 121° Southeast  Level Estimated
Tue 10:47:00 PM 41.8167 55.9054 121° Southeast  Level Estimated
Tue 10:48:00 PM 41.7530 56.0479 121° Southeast  Level Estimated
Tue 10:49:00 PM 41.6891 56.1901 121° Southeast  Level Estimated
Tue 10:50:00 PM 41.6250 56.3320 121° Southeast  Level Estimated
Tue 10:51:00 PM 41.5608 56.4736 121° Southeast  Level Estimated
Tue 10:52:00 PM 41.4964 56.6150 121° Southeast  Level Estimated
Tue 10:53:00 PM 41.4319 56.7560 121° Southeast  Level Estimated
Tue 10:54:00 PM 41.3671 56.8968 121° Southeast  Level Estimated
Tue 10:55:00 PM 41.3022 57.0373 122° Southeast  Level Estimated
Tue 10:56:00 PM 41.2371 57.1775 122° Southeast  Level Estimated
Tue 10:57:00 PM 41.1719 57.3175 122° Southeast  Level Estimated
Tue 10:58:00 PM 41.1065 57.4571 122° Southeast  Level Estimated
Tue 10:59:00 PM 41.0409 57.5965 122° Southeast  Level Estimated
Tue 11:00:00 PM 40.9751 57.7356 122° Southeast  Level Estimated
Tue 11:01:00 PM 40.9092 57.8745 122° Southeast  Level Estimated
Tue 11:02:00 PM 40.8431 58.0130 122° Southeast  Level Estimated
Tue 11:03:00 PM 40.7769 58.1513 122° Southeast  Level Estimated
Tue 11:04:00 PM 40.7104 58.2893 122° Southeast  Level Estimated
Tue 11:05:00 PM 40.6439 58.4270 122° Southeast  Level Estimated
Tue 11:06:00 PM 40.5771 58.5645 123° Southeast  Level Estimated
Tue 11:07:00 PM 40.5102 58.7017 123° Southeast  Level Estimated
Tue 11:08:00 PM 40.4431 58.8386 123° Southeast  Level Estimated
Tue 11:09:00 PM 40.3759 58.9752 123° Southeast  Level Estimated
Tue 11:10:00 PM 40.3085 59.1115 123° Southeast  Level Estimated
Tue 11:11:00 PM 40.2410 59.2476 123° Southeast  Level Estimated
Tue 11:12:00 PM 40.1733 59.3834 123° Southeast  Level Estimated
Tue 11:13:00 PM 40.1054 59.5190 123° Southeast  Level Estimated
Tue 11:14:00 PM 40.0374 59.6543 123° Southeast  Level Estimated
Tue 11:15:00 PM 39.9692 59.7892 123° Southeast  Level Estimated
Tue 11:16:00 PM 39.9008 59.9240 123° Southeast  Level Estimated
Tue 11:17:00 PM 39.8324 60.0584 124° Southeast  Level Estimated
Tue 11:18:00 PM 39.7637 60.1926 124° Southeast  Level Estimated
Tue 11:19:00 PM 39.6949 60.3266 124° Southeast  Level Estimated
Tue 11:20:00 PM 39.6259 60.4602 124° Southeast  Level Estimated
Tue 11:21:00 PM 39.5568 60.5936 124° Southeast  Level Estimated
Tue 11:22:00 PM 39.4876 60.7267 124° Southeast  Level Estimated
Tue 11:23:00 PM 39.4182 60.8596 124° Southeast  Level Estimated
Tue 11:24:00 PM 39.3486 60.9922 124° Southeast  Level Estimated
Tue 11:25:00 PM 39.2789 61.1245 124° Southeast  Level Estimated
Tue 11:26:00 PM 39.2090 61.2566 124° Southeast  Level Estimated
Tue 11:27:00 PM 39.1390 61.3884 124° Southeast  Level Estimated
Tue 11:28:00 PM 39.0689 61.5200 124° Southeast  Level Estimated
Tue 11:29:00 PM 38.9986 61.6512 125° Southeast  Level Estimated
Tue 11:30:00 PM 38.9281 61.7823 125° Southeast  Level Estimated
Tue 11:31:00 PM 38.8575 61.9130 125° Southeast  Level Estimated
Tue 11:32:00 PM 38.7867 62.0435 125° Southeast  Level Estimated
Tue 11:33:00 PM 38.7159 62.1738 125° Southeast  Level Estimated
Tue 11:34:00 PM 38.6448 62.3038 125° Southeast  Level Estimated
Tue 11:35:00 PM 38.5736 62.4335 125° Southeast  Level Estimated
Tue 11:36:00 PM 38.5023 62.5630 125° Southeast  Level Estimated
Tue 11:37:00 PM 38.4309 62.6922 125° Southeast  Level Estimated
Tue 11:38:00 PM 38.3592 62.8212 125° Southeast  Level Estimated
Tue 11:39:00 PM 38.2875 62.9498 125° Southeast  Level Estimated
Tue 11:40:00 PM 38.2156 63.0783 125° Southeast  Level Estimated
Tue 11:41:00 PM 38.1436 63.2065 126° Southeast  Level Estimated
Tue 11:42:00 PM 38.0714 63.3344 126° Southeast  Level Estimated
Tue 11:43:00 PM 37.9991 63.4621 126° Southeast  Level Estimated
Tue 11:44:00 PM 37.9267 63.5896 126° Southeast  Level Estimated
Tue 11:45:00 PM 37.8541 63.7168 126° Southeast  Level Estimated
Tue 11:46:00 PM 37.7814 63.8437 126° Southeast  Level Estimated
Tue 11:47:00 PM 37.7085 63.9704 126° Southeast  Level Estimated
Tue 11:48:00 PM 37.6355 64.0968 126° Southeast  Level Estimated
Tue 11:49:00 PM 37.5624 64.2230 126° Southeast  Level Estimated
Tue 11:50:00 PM 37.4891 64.3490 126° Southeast  Level Estimated
Tue 11:51:00 PM 37.4157 64.4747 126° Southeast  Level Estimated
Tue 11:52:00 PM 37.3422 64.6001 126° Southeast  Level Estimated
Tue 11:53:00 PM 37.2686 64.7253 126° Southeast  Level Estimated
Tue 11:54:00 PM 37.1948 64.8503 127° Southeast  Level Estimated
Tue 11:55:00 PM 37.1209 64.9750 127° Southeast  Level Estimated
Tue 11:56:00 PM 37.0468 65.0994 127° Southeast  Level Estimated
Tue 11:57:00 PM 36.9726 65.2237 127° Southeast  Level Estimated
Tue 11:58:00 PM 36.8983 65.3477 127° Southeast  Level Estimated
Tue 11:59:00 PM 36.8239 65.4714 127° Southeast  Level Estimated
Wed 12:00:00 AM 36.7493 65.5949 127° Southeast  Level Estimated
Wed 12:01:00 AM 36.6746 65.7182 127° Southeast  Level Estimated
Wed 12:02:00 AM 36.5998 65.8412 127° Southeast  Level Estimated
Wed 12:03:00 AM 36.5249 65.9640 127° Southeast  Level Estimated
Wed 12:04:00 AM 36.4498 66.0865 127° Southeast  Level Estimated
Wed 12:05:00 AM 36.3746 66.2088 127° Southeast  Level Estimated
Wed 12:06:00 AM 36.2993 66.3309 127° Southeast  Level Estimated
Wed 12:07:00 AM 36.2239 66.4528 127° Southeast  Level Estimated
Wed 12:08:00 AM 36.1483 66.5743 128° Southeast  Level Estimated
Wed 12:09:00 AM 36.0726 66.6957 128° Southeast  Level Estimated
Wed 12:10:00 AM 35.9968 66.8169 128° Southeast  Level Estimated
Wed 12:11:00 AM 35.9209 66.9378 128° Southeast  Level Estimated
Wed 12:12:00 AM 35.8448 67.0584 128° Southeast  Level Estimated
Wed 12:13:00 AM 35.7687 67.1789 128° Southeast  Level Estimated
Wed 12:14:00 AM 35.6924 67.2991 128° Southeast  Level Estimated
Wed 12:15:00 AM 35.6160 67.4191 128° Southeast  Level Estimated
Wed 12:16:00 AM 35.5394 67.5388 128° Southeast  Level Estimated
Wed 12:17:00 AM 35.4628 67.6583 128° Southeast  Level Estimated
Wed 12:18:00 AM 35.3860 67.7776 128° Southeast  Level Estimated
Wed 12:19:00 AM 35.3091 67.8967 128° Southeast  Level Estimated
Wed 12:20:00 AM 35.2321 68.0155 128° Southeast  Level Estimated
Wed 12:21:00 AM 35.1550 68.1341 128° Southeast  Level Estimated
Wed 12:22:00 AM 35.0778 68.2525 129° Southeast  Level Estimated
Wed 12:23:00 AM 35.0004 68.3707 129° Southeast  Level Estimated
Wed 12:24:00 AM 34.9230 68.4886 129° Southeast  Level Estimated
Wed 12:25:00 AM 34.8454 68.6064 129° Southeast  Level Estimated
Wed 12:26:00 AM 34.7677 68.7239 129° Southeast  Level Estimated
Wed 12:27:00 AM 34.6899 68.8411 129° Southeast  Level Estimated
Wed 12:28:00 AM 34.6120 68.9582 129° Southeast  Level Estimated
Wed 12:29:00 AM 34.5340 69.0750 129° Southeast  Level Estimated
Wed 12:30:00 AM 34.4558 69.1917 129° Southeast  Level Estimated
Wed 12:31:00 AM 34.3776 69.3081 129° Southeast  Level Estimated
Wed 12:32:00 AM 34.2992 69.4242 129° Southeast  Level Estimated
Wed 12:33:00 AM 34.2208 69.5402 129° Southeast  Level Estimated
Wed 12:34:00 AM 34.1422 69.6560 129° Southeast  Level Estimated
Wed 12:35:00 AM 34.0635 69.7715 129° Southeast  Level Estimated
Wed 12:36:00 AM 33.9847 69.8868 129° Southeast  Level Estimated
Wed 12:37:00 AM 33.9058 70.0019 130° Southeast  Level Estimated
Wed 12:38:00 AM 33.8268 70.1168 130° Southeast  Level Estimated
Wed 12:39:00 AM 33.7477 70.2315 130° Southeast  Level Estimated
Wed 12:40:00 AM 33.6685 70.3460 130° Southeast  Level Estimated
Wed 12:41:00 AM 33.5892 70.4602 130° Southeast  Level Estimated
Wed 12:42:00 AM 33.5098 70.5743 130° Southeast  Level Estimated
Wed 12:43:00 AM 33.4302 70.6881 130° Southeast  Level Estimated
Wed 12:44:00 AM 33.3506 70.8017 130° Southeast  Level Estimated
Wed 12:45:00 AM 33.2709 70.9152 130° Southeast  Level Estimated
Wed 12:46:00 AM 33.1910 71.0284 130° Southeast  Level Estimated
Wed 12:47:00 AM 33.1111 71.1414 130° Southeast  Level Estimated
Wed 12:48:00 AM 33.0310 71.2542 130° Southeast  Level Estimated
Wed 12:49:00 AM 32.9509 71.3668 130° Southeast  Level Estimated
Wed 12:50:00 AM 32.8706 71.4792 130° Southeast  Level Estimated
Wed 12:51:00 AM 32.7903 71.5914 130° Southeast  Level Estimated
Wed 12:52:00 AM 32.7098 71.7034 130° Southeast  Level Estimated
Wed 12:53:00 AM 32.6293 71.8151 131° Southeast  Level Estimated
Wed 12:54:00 AM 32.5486 71.9267 131° Southeast  Level Estimated
Wed 12:55:00 AM 32.4679 72.0381 131° Southeast  Level Estimated
Wed 12:56:00 AM 32.3870 72.1493 131° Southeast  Level Estimated
Wed 12:57:00 AM 32.3061 72.2603 131° Southeast  Level Estimated
Wed 12:58:00 AM 32.2251 72.3711 131° Southeast  Level Estimated
Wed 12:59:00 AM 32.1439 72.4817 131° Southeast  Level Estimated
Wed 01:00:00 AM 32.0627 72.5921 131° Southeast  Level Estimated
Wed 01:01:00 AM 31.9814 72.7023 131° Southeast  Level Estimated
Wed 01:02:00 AM 31.9000 72.8123 131° Southeast  Level Estimated
Wed 01:03:00 AM 31.8185 72.9221 131° Southeast  Level Estimated
Wed 01:04:00 AM 31.7368 73.0317 131° Southeast  Level Estimated
Wed 01:05:00 AM 31.6551 73.1411 131° Southeast  Level Estimated
Wed 01:06:00 AM 31.5734 73.2504 131° Southeast  Level Estimated
Wed 01:07:00 AM 31.4915 73.3594 131° Southeast  Level Estimated
Wed 01:08:00 AM 31.4095 73.4682 131° Southeast  Level Estimated
Wed 01:08:39 AM 28.2400 73.7800 131° Southeast 557 641 39,000  Level FlightAware ADS-B
Wed 01:09:00 AM 31.3274 73.5769 131° Southeast  Level Estimated
Wed 01:09:14 AM 28.2240 73.8830 100° East 558 642 39,000  Level FlightAware ADS-B
Wed 01:09:59 AM 28.2040 74.0170 100° East 560 644 39,000  Level FlightAware ADS-B
Wed 01:10:39 AM 28.1950 74.1310 95° East 563 648 39,000  Level FlightAware ADS-B
Wed 01:11:24 AM 28.1970 74.2560 89° East 564 649 39,000  Level FlightAware ADS-B
Wed 01:12:04 AM 28.1820 74.3790 98° East 560 644 39,000  Level FlightAware ADS-B
Wed 01:12:44 AM 28.1670 74.5020 98° East 560 644 39,000  Level FlightAware ADS-B
Wed 01:13:29 AM 28.1530 74.6220 98° East 562 647 39,000  Level FlightAware ADS-B
Wed 01:14:09 AM 28.1380 74.7400 98° East 562 647 39,000  Level FlightAware ADS-B
Wed 01:14:49 AM 28.1240 74.8580 98° East 562 647 39,000  Level FlightAware ADS-B
Wed 01:15:39 AM 28.1060 74.9980 98° East 564 649 39,000  Level FlightAware ADS-B
Wed 01:16:14 AM 28.0930 75.1080 98° East 567 652 39,000  Level FlightAware ADS-B
Wed 01:16:54 AM 28.0770 75.2300 98° East 568 654 39,000  Level FlightAware ADS-B
Wed 01:17:39 AM 28.0610 75.3560 98° East 566 651 39,000  Level FlightAware ADS-B
Wed 01:18:24 AM 28.0460 75.4750 98° East 565 650 39,000  Level FlightAware ADS-B
Wed 01:19:09 AM 28.0270 75.6240 98° East 566 651 39,000  Level FlightAware ADS-B
Wed 01:20:04 AM 28.0070 75.7810 98° East 565 650 39,000  Level FlightAware ADS-B
Wed 01:20:49 AM 27.9900 75.9100 98° East 566 651 39,000  Level FlightAware ADS-B
Wed 01:21:24 AM 27.9770 76.0090 98° East 568 654 39,000  Level FlightAware ADS-B
Wed 01:22:04 AM 27.9590 76.1420 99° East 568 654 39,000  Level FlightAware ADS-B
Wed 01:22:54 AM 27.9410 76.2790 98° East 566 651 39,000  Level FlightAware ADS-B
Wed 01:23:34 AM 27.9240 76.4010 99° East 565 650 39,000  Level FlightAware ADS-B
Wed 01:24:19 AM 27.9070 76.5260 99° East 564 649 39,000  Level FlightAware ADS-B
Wed 01:24:54 AM 27.8920 76.6390 99° East 565 650 39,000  Level FlightAware ADS-B
Wed 01:25:29 AM 27.8800 76.7280 99° East 566 651 39,000  Level FlightAware ADS-B
Wed 01:26:19 AM 27.8590 76.8820 99° East 566 651 39,000  Level FlightAware ADS-B
Wed 01:27:19 AM 27.8360 77.0480 99° East 566 651 39,000  Level FlightAware ADS-B
Wed 01:27:54 AM 27.8200 77.1610 99° East 567 652 39,000  Level FlightAware ADS-B
Wed 01:28:39 AM 27.8030 77.2760 99° East 567 652 39,000  Level FlightAware ADS-B
Wed 01:29:14 AM 27.7890 77.3760 99° East 566 651 39,000  Level FlightAware ADS-B
Wed 01:29:59 AM 27.7700 77.5090 99° East 565 650 39,000  Level FlightAware ADS-B
Wed 01:30:49 AM 27.7490 77.6540 99° East 566 651 39,000  Level FlightAware ADS-B
Wed 01:31:29 AM 27.7250 77.7620 104° East 558 642 39,000  Level FlightAware ADS-B
Wed 01:32:09 AM 27.6630 77.8590 126° Southeast 529 609 39,000  Level FlightAware ADS-B
Wed 01:32:49 AM 27.5850 77.9170 147° Southeast 508 585 39,000  Level FlightAware ADS-B
Wed 01:33:44 AM 27.4730 77.9880 151° Southeast 511 588 39,000  Level FlightAware ADS-B
Wed 01:34:34 AM 27.3730 78.0510 151° Southeast 512 589 39,000  Level FlightAware ADS-B
Wed 01:35:09 AM 27.2980 78.0980 151° Southeast 512 589 39,000  Level FlightAware ADS-B
Wed 01:35:49 AM 27.2110 78.1530 151° Southeast 514 592 39,000  Level FlightAware ADS-B
Wed 01:36:39 AM 27.1190 78.2110 151° Southeast 515 593 39,000  Level FlightAware ADS-B
Wed 01:37:19 AM 27.0260 78.2700 151° Southeast 514 592 39,000  Level FlightAware ADS-B
Wed 01:38:19 AM 26.9160 78.3400 150° Southeast 511 588 39,000  Level FlightAware ADS-B
Wed 01:38:59 AM 26.8470 78.3850 150° Southeast 511 588 39,000  Level FlightAware ADS-B
Wed 01:39:39 AM 26.7770 78.4300 150° Southeast 511 588 39,000  Level FlightAware ADS-B
Wed 01:40:19 AM 26.7080 78.4750 150° Southeast 511 588 39,000  Level FlightAware ADS-B
Wed 01:40:59 AM 26.6380 78.5200 150° Southeast 511 588 39,000  Level FlightAware ADS-B
Wed 01:41:49 AM 26.5510 78.5760 150° Southeast 511 588 39,000  Level FlightAware ADS-B
Wed 01:42:29 AM 26.4810 78.6210 150° Southeast 511 588 39,000  Level FlightAware ADS-B
Wed 01:43:09 AM 26.4120 78.6660 150° Southeast 511 588 39,000  Level FlightAware ADS-B
Wed 01:43:49 AM 26.3420 78.7110 150° Southeast 511 588 39,000  Level FlightAware ADS-B
Wed 01:44:29 AM 26.2720 78.7550 151° Southeast 511 588 39,000  Level FlightAware ADS-B
Wed 01:45:19 AM 26.1850 78.8110 150° Southeast 511 588 39,000  Level FlightAware ADS-B
Wed 01:45:59 AM 26.1160 78.8560 150° Southeast 511 588 39,000  Level FlightAware ADS-B
Wed 01:46:39 AM 26.0460 78.9010 150° Southeast 511 588 39,000  Level FlightAware ADS-B
Wed 01:47:19 AM 25.9770 78.9460 150° Southeast 511 588 39,000  Level FlightAware ADS-B
Wed 01:49:00 AM 25.8347 79.1154 133° Southeast  Level Estimated
Wed 01:50:00 AM 25.7501 79.2159 133° Southeast  Level Estimated
Wed 01:51:00 AM 25.6654 79.3162 133° Southeast  Level Estimated
Wed 01:52:00 AM 25.5806 79.4164 133° Southeast  Level Estimated
Wed 01:53:00 AM 25.4958 79.5164 133° Southeast  Level Estimated
Wed 01:54:00 AM 25.4109 79.6163 133° Southeast  Level Estimated
Wed 01:55:00 AM 25.3260 79.7161 133° Southeast  Level Estimated
Wed 01:56:00 AM 25.2409 79.8157 133° Southeast  Level Estimated
Wed 01:57:00 AM 25.1558 79.9152 133° Southeast  Level Estimated
Wed 01:58:00 AM 25.0707 80.0145 133° Southeast  Level Estimated
Wed 01:59:00 AM 24.9854 80.1137 133° Southeast  Level Estimated
Wed 02:00:00 AM 24.9001 80.2127 133° Southeast  Level Estimated
Wed 02:01:00 AM 24.8148 80.3117 134° Southeast  Level Estimated
Wed 02:02:00 AM 24.7293 80.4105 134° Southeast  Level Estimated
Wed 02:03:00 AM 24.6439 80.5091 134° Southeast  Level Estimated
Wed 02:04:00 AM 24.5583 80.6076 134° Southeast  Level Estimated
Wed 02:05:00 AM 24.4727 80.7060 134° Southeast  Level Estimated
Wed 02:06:00 AM 24.3870 80.8043 134° Southeast  Level Estimated
Wed 02:07:00 AM 24.3013 80.9024 134° Southeast  Level Estimated
Wed 02:08:00 AM 24.2154 81.0003 134° Southeast  Level Estimated
Wed 02:09:00 AM 24.1296 81.0982 134° Southeast  Level Estimated
Wed 02:10:00 AM 24.0436 81.1959 134° Southeast  Level Estimated
Wed 02:11:00 AM 23.9576 81.2935 134° Southeast  Level Estimated
Wed 02:12:00 AM 23.8716 81.3910 134° Southeast  Level Estimated
Wed 02:13:00 AM 23.7855 81.4883 134° Southeast  Level Estimated
Wed 02:14:00 AM 23.6993 81.5855 134° Southeast  Level Estimated
Wed 02:15:00 AM 23.6130 81.6826 134° Southeast  Level Estimated
Wed 02:16:00 AM 23.5267 81.7795 134° Southeast  Level Estimated
Wed 02:17:00 AM 23.4404 81.8763 134° Southeast  Level Estimated
Wed 02:18:00 AM 23.3540 81.9730 134° Southeast  Level Estimated
Wed 02:19:00 AM 23.2675 82.0696 134° Southeast  Level Estimated
Wed 02:20:00 AM 23.1809 82.1660 134° Southeast  Level Estimated
Wed 02:21:00 AM 23.0943 82.2623 134° Southeast  Level Estimated
Wed 02:22:00 AM 23.0077 82.3585 134° Southeast  Level Estimated
Wed 02:23:00 AM 22.9210 82.4546 134° Southeast  Level Estimated
Wed 02:24:00 AM 22.8342 82.5505 134° Southeast  Level Estimated
Wed 02:25:00 AM 22.7474 82.6463 134° Southeast  Level Estimated
Wed 02:26:00 AM 22.6605 82.7420 135° Southeast  Level Estimated
Wed 02:27:00 AM 22.5736 82.8376 135° Southeast  Level Estimated
Wed 02:28:00 AM 22.4866 82.9331 135° Southeast  Level Estimated
Wed 02:29:00 AM 22.3995 83.0284 135° Southeast  Level Estimated
Wed 02:30:00 AM 22.3124 83.1236 135° Southeast  Level Estimated
Wed 02:31:00 AM 22.2252 83.2187 135° Southeast  Level Estimated
Wed 02:32:00 AM 22.1380 83.3137 135° Southeast  Level Estimated
Wed 02:33:00 AM 22.0507 83.4086 135° Southeast  Level Estimated
Wed 02:34:00 AM 21.9634 83.5033 135° Southeast  Level Estimated
Wed 02:35:00 AM 21.8760 83.5980 135° Southeast  Level Estimated
Wed 02:36:00 AM 21.7886 83.6925 135° Southeast  Level Estimated
Wed 02:37:00 AM 21.7011 83.7869 135° Southeast  Level Estimated
Wed 02:38:00 AM 21.6135 83.8811 135° Southeast  Level Estimated
Wed 02:39:00 AM 21.5259 83.9753 135° Southeast  Level Estimated
Wed 02:40:00 AM 21.4383 84.0694 135° Southeast  Level Estimated
Wed 02:41:00 AM 21.3506 84.1633 135° Southeast  Level Estimated
Wed 02:42:00 AM 21.2628 84.2571 135° Southeast  Level Estimated
Wed 02:43:00 AM 21.1750 84.3509 135° Southeast  Level Estimated
Wed 02:44:00 AM 21.0872 84.4445 135° Southeast  Level Estimated
Wed 02:45:00 AM 20.9993 84.5380 135° Southeast  Level Estimated
Wed 02:46:00 AM 20.9113 84.6314 135° Southeast  Level Estimated
Wed 02:47:00 AM 20.8233 84.7246 135° Southeast  Level Estimated
Wed 02:48:00 AM 20.7352 84.8178 135° Southeast  Level Estimated
Wed 02:49:00 AM 20.6471 84.9109 135° Southeast  Level Estimated
Wed 02:50:00 AM 20.5590 85.0038 135° Southeast  Level Estimated
Wed 02:51:00 AM 20.4707 85.0967 135° Southeast  Level Estimated
Wed 02:52:00 AM 20.3825 85.1894 135° Southeast  Level Estimated
Wed 02:53:00 AM 20.2942 85.2821 135° Southeast  Level Estimated
Wed 02:54:00 AM 20.2058 85.3746 135° Southeast  Level Estimated
Wed 02:55:00 AM 20.1174 85.4670 136° Southeast  Level Estimated
Wed 02:56:00 AM 20.0289 85.5593 136° Southeast  Level Estimated
Wed 02:57:00 AM 19.9404 85.6515 136° Southeast  Level Estimated
Wed 02:58:00 AM 19.8519 85.7436 136° Southeast  Level Estimated
Wed 02:59:00 AM 19.7633 85.8356 136° Southeast  Level Estimated
Wed 03:00:00 AM 19.6746 85.9276 136° Southeast  Level Estimated
Wed 03:01:00 AM 19.5860 86.0194 136° Southeast  Level Estimated
Wed 03:02:00 AM 19.4972 86.1111 136° Southeast  Level Estimated
Wed 03:03:00 AM 19.4084 86.2027 136° Southeast  Level Estimated
Wed 03:04:00 AM 19.3196 86.2942 136° Southeast  Level Estimated
Wed 03:05:00 AM 19.2307 86.3856 136° Southeast  Level Estimated
Wed 03:06:00 AM 19.1418 86.4769 136° Southeast  Level Estimated
Wed 03:07:00 AM 19.0528 86.5681 136° Southeast  Level Estimated
Wed 03:08:00 AM 18.9638 86.6592 136° Southeast  Level Estimated
Wed 03:09:00 AM 18.8748 86.7502 136° Southeast  Level Estimated
Wed 03:10:00 AM 18.7857 86.8411 136° Southeast  Level Estimated
Wed 03:11:00 AM 18.6965 86.9319 136° Southeast  Level Estimated
Wed 03:12:00 AM 18.6073 87.0226 136° Southeast  Level Estimated
Wed 03:13:00 AM 18.5181 87.1133 136° Southeast  Level Estimated
Wed 03:14:00 AM 18.4288 87.2038 136° Southeast  Level Estimated
Wed 03:15:00 AM 18.3395 87.2942 136° Southeast  Level Estimated
Wed 03:16:00 AM 18.2502 87.3846 136° Southeast  Level Estimated
Wed 03:17:00 AM 18.1607 87.4748 136° Southeast  Level Estimated
Wed 03:18:00 AM 18.0713 87.5650 136° Southeast  Level Estimated
Wed 03:19:00 AM 17.9818 87.6551 136° Southeast  Level Estimated
Wed 03:20:00 AM 17.8923 87.7450 136° Southeast  Level Estimated
Wed 03:21:00 AM 17.8027 87.8349 136° Southeast  Level Estimated
Wed 03:22:00 AM 17.7131 87.9247 136° Southeast  Level Estimated
Wed 03:23:00 AM 17.6235 88.0144 136° Southeast  Level Estimated
Wed 03:24:00 AM 17.5338 88.1041 136° Southeast  Level Estimated
Wed 03:25:00 AM 17.4440 88.1936 136° Southeast  Level Estimated
Wed 03:26:00 AM 17.3543 88.2830 136° Southeast  Level Estimated
Wed 03:27:00 AM 17.2645 88.3724 136° Southeast  Level Estimated
Wed 03:28:00 AM 17.1746 88.4616 136° Southeast  Level Estimated
Wed 03:29:00 AM 17.0847 88.5508 137° Southeast  Level Estimated
Wed 03:30:00 AM 16.9948 88.6399 137° Southeast  Level Estimated
Wed 03:31:00 AM 16.9048 88.7289 137° Southeast  Level Estimated
Wed 03:32:00 AM 16.8148 88.8178 137° Southeast  Level Estimated
Wed 03:33:00 AM 16.7248 88.9067 137° Southeast  Level Estimated
Wed 03:34:00 AM 16.6347 88.9954 137° Southeast  Level Estimated
Wed 03:35:00 AM 16.5446 89.0841 137° Southeast  Level Estimated
Wed 03:36:00 AM 16.4544 89.1727 137° Southeast  Level Estimated
Wed 03:37:00 AM 16.3642 89.2612 137° Southeast  Level Estimated
Wed 03:38:00 AM 16.2740 89.3496 137° Southeast  Level Estimated
Wed 03:39:00 AM 16.1837 89.4380 137° Southeast  Level Estimated
Wed 03:40:00 AM 16.0934 89.5262 137° Southeast  Level Estimated
Wed 03:41:00 AM 16.0031 89.6144 137° Southeast  Level Estimated
Wed 03:42:00 AM 15.9127 89.7025 137° Southeast  Level Estimated
Wed 03:43:00 AM 15.8223 89.7905 137° Southeast  Level Estimated
Wed 03:44:00 AM 15.7318 89.8785 137° Southeast  Level Estimated
Wed 03:45:00 AM 15.6414 89.9663 137° Southeast  Level Estimated
Wed 03:46:00 AM 15.5508 90.0541 137° Southeast  Level Estimated
Wed 03:47:00 AM 15.4603 90.1418 137° Southeast  Level Estimated
Wed 03:48:00 AM 15.3697 90.2295 137° Southeast  Level Estimated
Wed 03:49:00 AM 15.2791 90.3170 137° Southeast  Level Estimated
Wed 03:50:00 AM 15.1884 90.4045 137° Southeast  Level Estimated
Wed 03:51:00 AM 15.0977 90.4919 137° Southeast  Level Estimated
Wed 03:52:00 AM 15.0070 90.5792 137° Southeast  Level Estimated
Wed 03:53:00 AM 14.9163 90.6665 137° Southeast  Level Estimated
Wed 03:54:00 AM 14.8255 90.7537 137° Southeast  Level Estimated
Wed 03:55:00 AM 14.7347 90.8408 137° Southeast  Level Estimated
Wed 03:56:00 AM 14.6438 90.9278 137° Southeast  Level Estimated
Wed 03:57:00 AM 14.5529 91.0148 137° Southeast  Level Estimated
Wed 03:58:00 AM 14.4620 91.1017 137° Southeast  Level Estimated
Wed 03:59:00 AM 14.3710 91.1885 137° Southeast  Level Estimated
Wed 04:00:00 AM 14.2801 91.2753 137° Southeast  Level Estimated
Wed 04:01:00 AM 14.1891 91.3620 137° Southeast  Level Estimated
Wed 04:02:00 AM 14.0980 91.4486 137° Southeast  Level Estimated
Wed 04:03:00 AM 14.0070 91.5351 137° Southeast  Level Estimated
Wed 04:04:00 AM 13.9158 91.6216 137° Southeast  Level Estimated
Wed 04:05:00 AM 13.8247 91.7080 137° Southeast  Level Estimated
Wed 04:06:00 AM 13.7335 91.7943 137° Southeast  Level Estimated
Wed 04:07:00 AM 13.6423 91.8806 137° Southeast  Level Estimated
Wed 04:08:00 AM 13.5511 91.9668 137° Southeast  Level Estimated
Wed 04:09:00 AM 13.4599 92.0530 137° Southeast  Level Estimated
Wed 04:10:00 AM 13.3686 92.1390 137° Southeast  Level Estimated
Wed 04:11:00 AM 13.2773 92.2250 137° Southeast  Level Estimated
Wed 04:12:00 AM 13.1859 92.3110 138° Southeast  Level Estimated
Wed 04:13:00 AM 13.0946 92.3969 138° Southeast  Level Estimated
Wed 04:14:00 AM 13.0031 92.4827 138° Southeast  Level Estimated
Wed 04:15:00 AM 12.9117 92.5684 138° Southeast  Level Estimated
Wed 04:16:00 AM 12.8203 92.6541 138° Southeast  Level Estimated
Wed 04:17:00 AM 12.7288 92.7398 138° Southeast  Level Estimated
Wed 04:18:00 AM 12.6373 92.8253 138° Southeast  Level Estimated
Wed 04:19:00 AM 12.5457 92.9108 138° Southeast  Level Estimated
Wed 04:20:00 AM 12.4542 92.9963 138° Southeast  Level Estimated
Wed 04:21:00 AM 12.3626 93.0817 138° Southeast  Level Estimated
Wed 04:22:00 AM 12.2710 93.1670 138° Southeast  Level Estimated
Wed 04:23:00 AM 12.1793 93.2523 138° Southeast  Level Estimated
Wed 04:24:00 AM 12.0877 93.3375 138° Southeast  Level Estimated
Wed 04:25:00 AM 11.9959 93.4226 138° Southeast  Level Estimated
Wed 04:26:00 AM 11.9042 93.5077 138° Southeast  Level Estimated
Wed 04:27:00 AM 11.8125 93.5927 138° Southeast  Level Estimated
Wed 04:28:00 AM 11.7207 93.6777 138° Southeast  Level Estimated
Wed 04:29:00 AM 11.6289 93.7626 138° Southeast  Level Estimated
Wed 04:30:00 AM 11.5371 93.8475 138° Southeast  Level Estimated
Wed 04:31:00 AM 11.4452 93.9323 138° Southeast  Level Estimated
Wed 04:32:00 AM 11.3534 94.0171 138° Southeast  Level Estimated
Wed 04:33:00 AM 11.2615 94.1018 138° Southeast  Level Estimated
Wed 04:34:00 AM 11.1695 94.1864 138° Southeast  Level Estimated
Wed 04:35:00 AM 11.0776 94.2710 138° Southeast  Level Estimated
Wed 04:36:00 AM 10.9856 94.3555 138° Southeast  Level Estimated
Wed 04:37:00 AM 10.8937 94.4400 138° Southeast  Level Estimated
Wed 04:38:00 AM 10.8016 94.5244 138° Southeast  Level Estimated
Wed 04:39:00 AM 10.7096 94.6088 138° Southeast  Level Estimated
Wed 04:40:00 AM 10.6175 94.6932 138° Southeast  Level Estimated
Wed 04:41:00 AM 10.5255 94.7774 138° Southeast  Level Estimated
Wed 04:42:00 AM 10.4334 94.8617 138° Southeast  Level Estimated
Wed 04:43:00 AM 10.3412 94.9458 138° Southeast  Level Estimated
Wed 04:44:00 AM 10.2491 95.0300 138° Southeast  Level Estimated
Wed 04:45:00 AM 10.1569 95.1141 138° Southeast  Level Estimated
Wed 04:46:00 AM 10.0647 95.1981 138° Southeast  Level Estimated
Wed 04:47:00 AM 9.9725 95.2821 138° Southeast  Level Estimated
Wed 04:47:27 AM 8.6610 97.3960 138° Southeast 460 529 39,000  Level FlightAware ADS-B
Wed 04:48:00 AM 9.8803 95.3660 138° Southeast  Level Estimated
Wed 04:48:12 AM 8.5810 97.4420 150° Southeast 458 527 39,000  Level FlightAware ADS-B
Wed 04:48:52 AM 8.5070 97.4840 151° Southeast 462 532 39,000  Level FlightAware ADS-B
Wed 04:49:37 AM 8.4160 97.5350 151° Southeast 465 535 39,000  Level FlightAware ADS-B
Wed 04:50:17 AM 8.3490 97.5730 151° Southeast 464 534 39,000  Level FlightAware ADS-B
Wed 04:51:02 AM 8.2540 97.6250 152° Southeast 463 533 39,000  Level FlightAware ADS-B
Wed 04:51:42 AM 8.1800 97.6650 152° Southeast 465 535 39,000  Level FlightAware ADS-B
Wed 04:52:27 AM 8.0930 97.7130 151° Southeast 470 541 39,000  Level FlightAware ADS-B
Wed 04:53:07 AM 8.0190 97.7540 151° Southeast 470 541 39,000  Level FlightAware ADS-B
Wed 04:53:47 AM 7.9400 97.7980 151° Southeast 468 539 39,000  Level FlightAware ADS-B
Wed 04:54:32 AM 7.8550 97.8460 151° Southeast 467 537 39,000  Level FlightAware ADS-B
Wed 04:55:12 AM 7.7780 97.8890 151° Southeast 469 540 39,000  Level FlightAware ADS-B
Wed 04:55:57 AM 7.6940 97.9390 149° Southeast 468 539 39,000  Level FlightAware ADS-B
Wed 04:56:37 AM 7.6230 97.9860 147° Southeast 470 541 39,000  Level FlightAware ADS-B
Wed 04:57:17 AM 7.5480 98.0350 147° Southeast 471 542 39,000  Level FlightAware ADS-B
Wed 04:57:52 AM 7.4960 98.0700 146° Southeast 472 543 39,000  Level FlightAware ADS-B
Wed 05:00:00 AM 7.2864 98.2323 142° Southeast  Level Estimated
Wed 05:00:37 AM 7.1690 98.2320 142° Southeast 475 547 39,000  Level FlightAware ADS-B
Wed 05:01:17 AM 7.1030 98.2660 153° Southeast 475 547 39,000  Level FlightAware ADS-B
Wed 05:01:57 AM 7.0360 98.3000 153° Southeast 475 547 39,000  Level FlightAware ADS-B
Wed 05:02:37 AM 6.9700 98.3340 153° Southeast 475 547 39,000  Level FlightAware ADS-B
Wed 05:03:17 AM 6.9030 98.3680 153° Southeast 475 547 39,000  Level FlightAware ADS-B
Wed 05:04:07 AM 6.8200 98.4110 153° Southeast 475 547 39,000  Level FlightAware ADS-B
Wed 05:04:47 AM 6.7530 98.4450 153° Southeast 475 547 39,000  Level FlightAware ADS-B
Wed 05:05:27 AM 6.6870 98.4790 153° Southeast 475 547 39,000  Level FlightAware ADS-B
Wed 05:06:07 AM 6.6200 98.5130 153° Southeast 475 547 39,000  Level FlightAware ADS-B
Wed 05:06:47 AM 6.5540 98.5480 152° Southeast 475 547 39,000  Level FlightAware ADS-B
Wed 05:07:37 AM 6.4700 98.5900 154° Southeast 475 547 39,000  Level FlightAware ADS-B
Wed 05:08:17 AM 6.4040 98.6240 153° Southeast 475 547 39,000  Level FlightAware ADS-B
Wed 05:10:00 AM 6.2415 98.7620 140° Southeast  Level Estimated
Wed 05:10:02 AM 6.1600 98.9060 140° Southeast 461 531 39,000  Level FlightAware ADS-B
Wed 05:10:47 AM 6.1580 98.9270 95° East 454 522 39,000  Level FlightAware ADS-B
Wed 05:11:37 AM 6.0480 99.0720 127° Southeast 458 527 39,000  Level FlightAware ADS-B
Wed 05:14:00 AM 5.8174 99.2573 141° Southeast  Level Estimated
Wed 05:14:07 AM 5.8030 99.2860 141° Southeast 458 527 39,000  Level FlightAware ADS-B
Wed 05:16:00 AM 5.6202 99.4317 142° Southeast  Level Estimated
Wed 05:17:00 AM 5.5232 99.5090 142° Southeast  Level Estimated
Wed 05:18:00 AM 5.4261 99.5863 142° Southeast  Level Estimated
Wed 05:19:00 AM 5.3290 99.6636 142° Southeast  Level Estimated
Wed 05:20:00 AM 5.2319 99.7408 142° Southeast  Level Estimated
Wed 05:21:00 AM 5.1348 99.8180 142° Southeast  Level Estimated
Wed 05:22:00 AM 5.0377 99.8952 142° Southeast  Level Estimated
Wed 05:23:00 AM 4.9406 99.9724 142° Southeast  Level Estimated
Wed 05:24:00 AM 4.8435 100.0496 142° Southeast  Level Estimated
Wed 05:25:00 AM 4.7463 100.1267 142° Southeast  Level Estimated
Wed 05:26:00 AM 4.6492 100.2038 142° Southeast  Level Estimated
Wed 05:27:00 AM 4.5520 100.2809 142° Southeast  Level Estimated
Wed 05:28:00 AM 4.4549 100.3580 142° Southeast  Level Estimated
Wed 05:29:00 AM 4.3577 100.4350 142° Southeast  Level Estimated
Wed 05:30:00 AM 4.2605 100.5120 142° Southeast  Level Estimated
Wed 05:31:00 AM 4.1633 100.5891 142° Southeast  Level Estimated
Wed 05:31:22 AM 4.0480 100.6050 142° Southeast 464 534 35,600  Level FlightAware ADS-B
Wed 05:32:02 AM 3.9670 100.6400 157° South 458 527 33,700 -1,906 Descending FlightAware ADS-B
Wed 05:32:47 AM 3.8820 100.6760 157° South 430 495 32,900 -1,129 Descending FlightAware ADS-B
Wed 05:33:27 AM 3.8100 100.7060 157° South 413 475 32,100 -1,271 Descending FlightAware ADS-B
Wed 05:34:12 AM 3.7320 100.7400 156° South 399 459 31,100 -1,412 Descending FlightAware ADS-B
Wed 05:34:52 AM 3.6650 100.7680 157° South 391 450 30,100 -1,425 Descending FlightAware ADS-B
Wed 05:35:32 AM 3.6080 100.8100 144° Southeast 371 427 29,200 -1,271 Descending FlightAware ADS-B
Wed 05:36:17 AM 3.5510 100.8590 139° Southeast 361 415 28,300 -1,267 Descending FlightAware ADS-B
Wed 05:37:02 AM 3.4940 100.9090 139° Southeast 350 403 27,300 -1,341 Descending FlightAware ADS-B
Wed 05:37:42 AM 3.4460 100.9520 138° Southeast 343 395 26,400 -1,425 Descending FlightAware ADS-B
Wed 05:38:22 AM 3.3980 100.9940 139° Southeast 343 395 25,400 -1,412 Descending FlightAware ADS-B
Wed 05:39:07 AM 3.3450 101.0410 138° Southeast 337 388 24,400 -1,271 Descending FlightAware ADS-B
Wed 05:39:47 AM 3.2990 101.0820 138° Southeast 329 379 23,600 -1,200 Descending FlightAware ADS-B
Wed 05:40:32 AM 3.2480 101.1270 139° Southeast 320 368 22,700 -1,129 Descending FlightAware ADS-B
Wed 05:41:12 AM 3.2040 101.1660 138° Southeast 309 356 22,000 -1,050 Descending FlightAware ADS-B
Wed 05:41:52 AM 3.1630 101.2030 138° Southeast 298 343 21,300 -1,059 Descending FlightAware ADS-B
Wed 05:42:37 AM 3.1120 101.2380 146° Southeast 293 337 20,500 -982 Descending FlightAware ADS-B
Wed 05:42:47 AM 3.0990 101.2380 180° South 293 337 20,400 -960 Descending FlightAware ADS-B
Wed 05:43:02 AM 3.0810 101.2300 204° Southwest 294 338 20,100 -1,000 Descending FlightAware ADS-B
Wed 05:43:17 AM 3.0660 101.2150 225° Southwest 296 341 19,900 -800 Descending FlightAware ADS-B
Wed 05:43:32 AM 3.0580 101.1970 246° West 297 342 19,700 -1,000 Descending FlightAware ADS-B
Wed 05:43:47 AM 3.0580 101.1760 270° West 298 343 19,400 -1,000 Descending FlightAware ADS-B
Wed 05:44:02 AM 3.0660 101.1570 293° West 300 345 19,200 -960 Descending FlightAware ADS-B
Wed 05:44:12 AM 3.0760 101.1470 315° West 299 344 19,000 -218 Descending FlightAware ADS-B
Wed 05:44:57 AM 3.1260 101.1100 324° Northwest 299 344 19,000  Level FlightAware ADS-B
Wed 05:45:37 AM 3.1710 101.0770 324° Northwest 299 344 19,000  Level FlightAware ADS-B
Wed 05:46:07 AM 3.2080 101.0620 338° Northwest 296 341 19,000  Level FlightAware ADS-B
Wed 05:46:17 AM 3.2220 101.0650 12° North 295 339 19,000  Level FlightAware ADS-B
Wed 05:46:32 AM 3.2400 101.0750 29° Northeast 296 341 19,000  Level FlightAware ADS-B
Wed 05:46:47 AM 3.2520 101.0910 53° Northeast 283 326 19,000  Level FlightAware ADS-B
Wed 05:47:02 AM 3.2560 101.1090 77° East 271 312 19,000  Level FlightAware ADS-B
Wed 05:47:17 AM 3.2540 101.1280 96° East 267 307 19,000  Level FlightAware ADS-B
Wed 05:47:32 AM 3.2450 101.1440 119° Southeast 264 304 19,000  Level FlightAware ADS-B
Wed 05:48:12 AM 3.2060 101.1740 142° Southeast 263 303 19,000  Level FlightAware ADS-B
Wed 05:48:52 AM 3.1670 101.2030 143° Southeast 265 305 19,000  Level FlightAware ADS-B
Wed 05:49:32 AM 3.1270 101.2300 146° Southeast 261 300 19,000  Level FlightAware ADS-B
Wed 05:49:42 AM 3.1150 101.2330 166° South 258 297 19,000 -200 Level FlightAware ADS-B
Wed 05:50:02 AM 3.0930 101.2270 195° South 257 296 18,900 -400 Descending FlightAware ADS-B
Wed 05:50:12 AM 3.0830 101.2180 222° Southwest 257 296 18,800 -800 Descending FlightAware ADS-B
Wed 05:50:32 AM 3.0750 101.1970 249° West 260 299 18,500 -1,000 Descending FlightAware ADS-B
Wed 05:50:42 AM 3.0760 101.1850 275° West 261 300 18,300 -1,000 Descending FlightAware ADS-B
Wed 05:51:02 AM 3.0890 101.1650 303° West 264 304 18,000 -1,000 Descending FlightAware ADS-B
Wed 05:51:12 AM 3.0990 101.1580 325° Northwest 264 304 17,800 -1,200 Descending FlightAware ADS-B
Wed 05:51:22 AM 3.1110 101.1560 351° North 262 302 17,600 -1,000 Descending FlightAware ADS-B
Wed 05:51:42 AM 3.1350 101.1600 North 262 302 17,300 -1,029 Descending FlightAware ADS-B
Wed 05:51:57 AM 3.1480 101.1730 45° Northeast 260 299 17,000 -960 Descending FlightAware ADS-B
Wed 05:52:07 AM 3.1530 101.1840 66° East 259 298 16,900 -900 Descending FlightAware ADS-B
Wed 05:52:37 AM 3.1440 101.2160 106° East 253 291 16,400 -960 Descending FlightAware ADS-B
Wed 05:53:22 AM 3.1000 101.2530 140° Southeast 300 345 15,700 -1,059 Descending FlightAware ADS-B
Wed 05:54:02 AM 3.0560 101.2920 138° Southeast 319 367 14,900 -1,129 Descending FlightAware ADS-B
Wed 05:54:47 AM 3.0060 101.3350 139° Southeast 308 354 14,100 -1,059 Descending FlightAware ADS-B
Wed 05:55:27 AM 2.9630 101.3720 139° Southeast 304 350 13,400 -1,200 Descending FlightAware ADS-B
Wed 05:56:07 AM 2.9210 101.4080 139° Southeast 298 343 12,500 -1,425 Descending FlightAware ADS-B
Wed 05:56:47 AM 2.8780 101.4440 140° Southeast 300 345 11,500 -1,360 Descending FlightAware ADS-B
Wed 05:57:22 AM 2.8450 101.4730 139° Southeast 296 341 10,800 -1,200 Descending FlightAware ADS-B
Wed 05:58:02 AM 2.8040 101.5080 140° Southeast 294 338 10,000 -1,200 Descending FlightAware ADS-B
Wed 05:58:27 AM 2.7770 101.5310 140° Southeast 295 339 9,500 -1,091 Descending FlightAware ADS-B
Wed 05:58:57 AM 2.7510 101.5540 139° Southeast 293 337 9,000 -1,200 Descending FlightAware ADS-B
Wed 05:59:37 AM 2.7050 101.5930 140° Southeast 289 333 8,100 -1,320 Descending FlightAware ADS-B
Wed 05:59:47 AM 2.6950 101.6020 138° Southeast 289 333 7,900 -1,350 Descending FlightAware ADS-B
Wed 06:00:17 AM 2.6660 101.6270 139° Southeast 287 330 7,200 -1,200 Descending FlightAware ADS-B
Wed 06:00:47 AM 2.6380 101.6480 143° Southeast 284 327 6,700 -1,200 Descending FlightAware ADS-B
Wed 06:01:12 AM 2.6100 101.6660 147° Southeast 281 323 6,100 -720 Descending FlightAware ADS-B
Wed 06:01:37 AM 2.5850 101.6830 146° Southeast 281 323 6,100 -764 Level FlightAware ADS-B
Wed 06:02:07 AM 2.5510 101.7060 146° Southeast 263 303 5,400 -1,080 Descending FlightAware ADS-B
Wed 06:02:27 AM 2.5300 101.7200 146° Southeast 250 288 5,200 -400 Descending FlightAware ADS-B
Wed 06:03:07 AM 2.4950 101.7450 144° Southeast 229 264 5,000 -436 Descending FlightAware ADS-B
Wed 06:03:22 AM 2.4890 101.7560 119° Southeast 220 253 4,800 -800 Descending FlightAware ADS-B
Wed 06:03:52 AM 2.4980 101.7850 73° East 205 236 4,400 -764 Descending FlightAware ADS-B
Wed 06:04:17 AM 2.5100 101.8030 56° Northeast 198 228 4,100 -750 Descending FlightAware ADS-B
Wed 06:04:32 AM 2.5220 101.8110 34° Northeast 193 222 3,900 -600 Descending FlightAware ADS-B
Wed 06:04:47 AM 2.5350 101.8120 North 192 221 3,800 -480 Descending FlightAware ADS-B
Wed 06:04:57 AM 2.5450 101.8120 360° North 192 221 3,700 -600 Descending FlightAware ADS-B
Wed 06:05:27 AM 2.5710 101.8120 360° North 190 219 3,400 -600 Descending FlightAware ADS-B
Wed 06:05:37 AM 2.5800 101.8080 336° Northwest 190 219 3,300 -933 Descending FlightAware ADS-B
Wed 06:06:12 AM 2.6050 101.7900 324° Northwest 188 216 2,700 -1,000 Descending FlightAware ADS-B
Wed 06:06:37 AM 2.6230 101.7790 329° Northwest 186 214 2,300 -1,050 Descending FlightAware ADS-B
Wed 06:06:52 AM 2.6350 101.7700 323° Northwest 182 209 2,000 -933 Descending FlightAware ADS-B
Wed 06:07:22 AM 2.6530 101.7580 326° Northwest 163 188 1,600 -514 Descending FlightAware ADS-B
Wed 06:08:02 AM 2.6740 101.7440 326° Northwest 150 173 1,400 -300 Descending FlightAware ADS-B
Wed 06:10:00 AM 2.7456 101.7099 335° Northwest  Level Estimated
Wed 06:11:00 AM 2.7456 101.7099 236° Southwest  Level Estimated
Wed 06:12:00 AM 2.7456 101.7099 236° Southwest  Level Estimated
Wed 06:13:00 AM 2.7456 101.7099 236° Southwest  Level Estimated
Wed 06:14:00 AM 2.7456 101.7099 236° Southwest  Level Estimated
Wed 06:15:00 AM 2.7456 101.7099 236° Southwest  Level Estimated
Wed 06:16:00 AM 2.7456 101.7099 236° Southwest  Level Estimated

Login

Don't have an account? Register now (free) for customized features, flight alerts, and more!